Observation data for Tahoka on 05/16/2018      Previous  Date  Next       Current Mesonet Observations  Soil Data  Daily Summary Page  Observations in Plain Language
KTAS 160500Z 05008KT 20/12 A3001 RMK A01 T01980123  RH  062%=      5-min Rain = 0
KTAS 160501Z 05008KT 20/12 A3001 RMK A01 T01970123  RH  062%=      5-min Rain = 0
KTAS 160502Z 05008KT 20/12 A3001 RMK A01 T01960123  RH  063%=      5-min Rain = 0
KTAS 160503Z 05009KT 20/12 A3001 RMK A01 T01960123  RH  063%=      5-min Rain = 0
KTAS 160504Z 05007KT 20/12 A3001 RMK A01 T01950123  RH  063%=      5-min Rain = 0
KTAS 160505Z 06008KT 19/12 A3001 RMK A01 T01940123  RH  063%=      5-min Rain = 0
KTAS 160506Z 06007KT 19/12 A3001 RMK A01 T01940123  RH  064%=      5-min Rain = 0
KTAS 160507Z 07009KT 19/12 A3001 RMK A01 T01930123  RH  064%=      5-min Rain = 0
KTAS 160508Z 07009KT 19/12 A3001 RMK A01 T01930124  RH  064%=      5-min Rain = 0
KTAS 160509Z 07010KT 19/12 A3001 RMK A01 T01930124  RH  064%=      5-min Rain = 0
KTAS 160510Z 08010KT 19/13 A3001 RMK A01 T01940125  RH  064%=      5-min Rain = 0
KTAS 160511Z 08011KT 19/13 A30 RMK A01 T01940125  RH  064%=      5-min Rain = 0
KTAS 160512Z 08012KT 20/13 A30 RMK A01 T01950125  RH  064%=      5-min Rain = 0
KTAS 160513Z 07010KT 20/13 A30 RMK A01 T01950125  RH  064%=      5-min Rain = 0
KTAS 160514Z 07011KT 19/13 A30 RMK A01 T01940125  RH  064%=      5-min Rain = 0
KTAS 160515Z 07010KT 19/13 A30 RMK A01 T01940125  RH  064%=      5-min Rain = 0
KTAS 160516Z 07010KT 19/13 A30 RMK A01 T01940125  RH  064%=      5-min Rain = 0
KTAS 160517Z 08009KT 19/13 A30 RMK A01 T01930125  RH  065%=      5-min Rain = 0
KTAS 160518Z 07010KT 19/13 A30 RMK A01 T01920125  RH  065%=      5-min Rain = 0
KTAS 160519Z 07010KT 19/13 A30 RMK A01 T01920126  RH  065%=      5-min Rain = 0
KTAS 160520Z 06008KT 19/13 A30 RMK A01 T01920126  RH  065%=      5-min Rain = 0
KTAS 160521Z 06011KT 19/13 A30 RMK A01 T01910125  RH  066%=      5-min Rain = 0
KTAS 160522Z 06010KT 19/13 A30 RMK A01 T01910126  RH  066%=      5-min Rain = 0
KTAS 160523Z 06010KT 19/13 A30 RMK A01 T01900126  RH  066%=      5-min Rain = 0
KTAS 160524Z 06009KT 19/13 A30 RMK A01 T01890126  RH  067%=      5-min Rain = 0
KTAS 160525Z 06010KT 19/13 A30 RMK A01 T01890126  RH  067%=      5-min Rain = 0
KTAS 160526Z 06011KT 19/13 A3001 RMK A01 T01890127  RH  067%=      5-min Rain = 0
KTAS 160527Z 06010KT 19/13 A3001 RMK A01 T01880127  RH  067%=      5-min Rain = 0
KTAS 160528Z 06011KT 19/13 A3001 RMK A01 T01880127  RH  068%=      5-min Rain = 0
KTAS 160529Z 06010KT 19/13 A3001 RMK A01 T01870128  RH  068%=      5-min Rain = 0
KTAS 160530Z 06012KT 19/13 A3001 RMK A01 T01870128  RH  069%=      5-min Rain = 0
KTAS 160531Z 06011KT 19/13 A3001 RMK A01 T01860128  RH  069%=      5-min Rain = 0
KTAS 160532Z 06010KT 19/13 A3001 RMK A01 T01860128  RH  069%=      5-min Rain = 0
KTAS 160533Z 06012KT 19/13 A3001 RMK A01 T01850128  RH  069%=      5-min Rain = 0
KTAS 160534Z 07011KT 19/13 A3001 RMK A01 T01860128  RH  069%=      5-min Rain = 0
KTAS 160535Z 08011KT 19/13 A3001 RMK A01 T01860128  RH  069%=      5-min Rain = 0
KTAS 160536Z 07012KT 19/13 A30 RMK A01 T01860127  RH  069%=      5-min Rain = 0
KTAS 160537Z 07011KT 19/13 A30 RMK A01 T01870127  RH  068%=      5-min Rain = 0
KTAS 160538Z 08012KT 19/13 A3001 RMK A01 T01870127  RH  068%=      5-min Rain = 0
KTAS 160539Z 08013KT 19/13 A30 RMK A01 T01870127  RH  068%=      5-min Rain = 0
KTAS 160540Z 08010KT 19/13 A3001 RMK A01 T01870127  RH  068%=      5-min Rain = 0
KTAS 160541Z 08012KT 19/13 A3001 RMK A01 T01870126  RH  068%=      5-min Rain = 0
KTAS 160542Z 08011KT 19/13 A3001 RMK A01 T01870126  RH  068%=      5-min Rain = 0
KTAS 160543Z 08011KT 19/13 A3001 RMK A01 T01860126  RH  068%=      5-min Rain = 0
KTAS 160544Z 08011KT 19/13 A3001 RMK A01 T01860126  RH  068%=      5-min Rain = 0
KTAS 160545Z 08011KT 19/13 A3001 RMK A01 T01860127  RH  068%=      5-min Rain = 0
KTAS 160546Z 08010KT 19/13 A3001 RMK A01 T01860127  RH  068%=      5-min Rain = 0
KTAS 160547Z 08010KT 19/13 A3001 RMK A01 T01850127  RH  069%=      5-min Rain = 0
KTAS 160548Z 08010KT 18/13 A3001 RMK A01 T01840127  RH  069%=      5-min Rain = 0
KTAS 160549Z 08011KT 18/13 A3001 RMK A01 T01840127  RH  069%=      5-min Rain = 0
KTAS 160550Z 09010KT 18/13 A3001 RMK A01 T01840127  RH  070%=      5-min Rain = 0
KTAS 160551Z 09009KT 18/13 A3001 RMK A01 T01840127  RH  070%=      5-min Rain = 0
KTAS 160552Z 08010KT 18/13 A3001 RMK A01 T01830127  RH  070%=      5-min Rain = 0
KTAS 160553Z 09010KT 18/13 A3001 RMK A01 T01830127  RH  070%=      5-min Rain = 0
KTAS 160554Z 08011KT 18/13 A3001 RMK A01 T01830127  RH  069%=      5-min Rain = 0
KTAS 160555Z 08012KT 18/13 A3001 RMK A01 T01840126  RH  069%=      5-min Rain = 0
KTAS 160556Z 09011G16KT 18/13 A3001 RMK A01 T01840126  RH  069%=      5-min Rain = 0
KTAS 160557Z 08011KT 18/13 A3001 RMK A01 T01840126  RH  069%=      5-min Rain = 0
KTAS 160558Z 09012KT 19/13 A3001 RMK A01 T01850125  RH  068%=      5-min Rain = 0
KTAS 160559Z 09011KT 19/13 A3001 RMK A01 T01860126  RH  068%=      5-min Rain = 0
KTAS 160600Z 09012KT 19/13 A3001 RMK A01 T01860126  RH  068%=      5-min Rain = 0
KTAS 160601Z 09012KT 19/13 A3001 RMK A01 T01870126  RH  068%=      5-min Rain = 0
KTAS 160602Z 09011G16KT 19/13 A3001 RMK A01 T01870126  RH  067%=      5-min Rain = 0
KTAS 160603Z 09011KT 19/13 A3001 RMK A01 T01880126  RH  067%=      5-min Rain = 0
KTAS 160604Z 09011KT 19/13 A3001 RMK A01 T01870126  RH  067%=      5-min Rain = 0
KTAS 160605Z 09011KT 19/13 A3001 RMK A01 T01880126  RH  067%=      5-min Rain = 0
KTAS 160606Z 10012KT 19/13 A3001 RMK A01 T01880126  RH  067%=      5-min Rain = 0
KTAS 160607Z 09010KT 19/13 A3001 RMK A01 T01880126  RH  067%=      5-min Rain = 0
KTAS 160608Z 09012KT 19/13 A3002 RMK A01 T01880126  RH  067%=      5-min Rain = 0
KTAS 160609Z 09011KT 19/13 A3002 RMK A01 T01880126  RH  067%=      5-min Rain = 0
KTAS 160610Z 09010KT 19/13 A3002 RMK A01 T01880126  RH  067%=      5-min Rain = 0
KTAS 160611Z 09009KT 19/13 A3002 RMK A01 T01870126  RH  068%=      5-min Rain = 0
KTAS 160612Z 09011KT 19/13 A3002 RMK A01 T01860126  RH  068%=      5-min Rain = 0
KTAS 160613Z 09009KT 19/13 A3002 RMK A01 T01860126  RH  068%=      5-min Rain = 0
KTAS 160614Z 09010KT 19/13 A3002 RMK A01 T01850126  RH  068%=      5-min Rain = 0
KTAS 160615Z 09011KT 19/13 A3002 RMK A01 T01850127  RH  069%=      5-min Rain = 0
KTAS 160616Z 09010KT 19/13 A3002 RMK A01 T01850127  RH  069%=      5-min Rain = 0
KTAS 160617Z 09009KT 19/13 A3002 RMK A01 T01850127  RH  069%=      5-min Rain = 0
KTAS 160618Z 10009KT 18/13 A3002 RMK A01 T01840128  RH  069%=      5-min Rain = 0
KTAS 160619Z 10011KT 18/13 A3002 RMK A01 T01840128  RH  070%=      5-min Rain = 0
KTAS 160620Z 10011KT 18/13 A3002 RMK A01 T01840129  RH  070%=      5-min Rain = 0
KTAS 160621Z 10010KT 18/13 A3002 RMK A01 T01840129  RH  070%=      5-min Rain = 0
KTAS 160622Z 11011KT 19/13 A3002 RMK A01 T01850130  RH  070%=      5-min Rain = 0
KTAS 160623Z 10010KT 19/13 A3002 RMK A01 T01850130  RH  071%=      5-min Rain = 0
KTAS 160624Z 10011KT 18/13 A3002 RMK A01 T01840130  RH  071%=      5-min Rain = 0
KTAS 160625Z 10011KT 18/13 A3002 RMK A01 T01840131  RH  071%=      5-min Rain = 0
KTAS 160626Z 09011KT 18/13 A3002 RMK A01 T01840131  RH  071%=      5-min Rain = 0
KTAS 160627Z 10010KT 19/13 A3002 RMK A01 T01850131  RH  071%=      5-min Rain = 0
KTAS 160628Z 10009KT 18/13 A3002 RMK A01 T01840131  RH  071%=      5-min Rain = 0
KTAS 160629Z 09009G14KT 18/13 A3002 RMK A01 T01840131  RH  071%=      5-min Rain = 0
KTAS 160630Z 09009KT 18/13 A3002 RMK A01 T01830132  RH  072%=      5-min Rain = 0
KTAS 160631Z 09010KT 18/13 A3002 RMK A01 T01830132  RH  072%=      5-min Rain = 0
KTAS 160632Z 09011KT 18/13 A3002 RMK A01 T01830132  RH  072%=      5-min Rain = 0
KTAS 160633Z 09009KT 18/13 A3002 RMK A01 T01830132  RH  072%=      5-min Rain = 0
KTAS 160634Z 09010KT 18/13 A3002 RMK A01 T01830132  RH  072%=      5-min Rain = 0
KTAS 160635Z 09010KT 18/13 A3002 RMK A01 T01820133  RH  073%=      5-min Rain = 0
KTAS 160636Z 09010KT 18/13 A3002 RMK A01 T01820133  RH  073%=      5-min Rain = 0
KTAS 160637Z 09009KT 18/13 A3002 RMK A01 T01820133  RH  073%=      5-min Rain = 0
KTAS 160638Z 09007KT 18/13 A3002 RMK A01 T01820133  RH  073%=      5-min Rain = 0
KTAS 160639Z 09007KT 18/13 A3002 RMK A01 T01810133  RH  073%=      5-min Rain = 0
KTAS 160640Z 09007KT 18/13 A3002 RMK A01 T01810133  RH  074%=      5-min Rain = 0
KTAS 160641Z 10007KT 18/13 A3002 RMK A01 T01800133  RH  074%=      5-min Rain = 0
KTAS 160642Z 09007KT 18/13 A3002 RMK A01 T01800134  RH  074%=      5-min Rain = 0
KTAS 160643Z 09009KT 18/13 A3002 RMK A01 T01800133  RH  074%=      5-min Rain = 0
KTAS 160644Z 09008KT 18/13 A3002 RMK A01 T01800134  RH  074%=      5-min Rain = 0
KTAS 160645Z 08009KT 18/13 A3002 RMK A01 T01800134  RH  075%=      5-min Rain = 0
KTAS 160646Z 08008KT 18/13 A3002 RMK A01 T01790134  RH  075%=      5-min Rain = 0
KTAS 160647Z 09008KT 18/13 A3002 RMK A01 T01790134  RH  075%=      5-min Rain = 0
KTAS 160648Z 09008KT 18/13 A3002 RMK A01 T01790134  RH  075%=      5-min Rain = 0
KTAS 160649Z 09008KT 18/13 A3002 RMK A01 T01790134  RH  075%=      5-min Rain = 0
KTAS 160650Z 09006KT 18/13 A3001 RMK A01 T01780134  RH  075%=      5-min Rain = 0
KTAS 160651Z 09007KT 18/13 A3001 RMK A01 T01780134  RH  076%=      5-min Rain = 0
KTAS 160652Z 10007KT 18/14 A3001 RMK A01 T01780135  RH  076%=      5-min Rain = 0
KTAS 160653Z 10007KT 18/14 A3002 RMK A01 T01780135  RH  076%=      5-min Rain = 0
KTAS 160654Z 11006KT 18/14 A3002 RMK A01 T01770135  RH  076%=      5-min Rain = 0
KTAS 160655Z 11007KT 18/14 A3002 RMK A01 T01770135  RH  076%=      5-min Rain = 0
KTAS 160656Z 11006KT 18/14 A3002 RMK A01 T01770135  RH  076%=      5-min Rain = 0
KTAS 160657Z 12006KT 18/14 A3001 RMK A01 T01770135  RH  076%=      5-min Rain = 0
KTAS 160658Z 11007KT 18/14 A3001 RMK A01 T01770135  RH  076%=      5-min Rain = 0
KTAS 160659Z 12007KT 18/14 A3001 RMK A01 T01770135  RH  076%=      5-min Rain = 0
KTAS 160700Z 12007KT 18/14 A3002 RMK A01 T01770136  RH  076%=      5-min Rain = 0
KTAS 160701Z 12006KT 18/14 A3002 RMK A01 T01780136  RH  076%=      5-min Rain = 0
KTAS 160702Z 12005KT 18/14 A3001 RMK A01 T01780136  RH  076%=      5-min Rain = 0
KTAS 160703Z 12006KT 18/14 A3001 RMK A01 T01770135  RH  076%=      5-min Rain = 0
KTAS 160704Z 12006KT 18/14 A3001 RMK A01 T01770135  RH  076%=      5-min Rain = 0
KTAS 160705Z 11006KT 18/14 A3001 RMK A01 T01770135  RH  076%=      5-min Rain = 0
KTAS 160706Z 12006KT 18/14 A3001 RMK A01 T01770135  RH  076%=      5-min Rain = 0
KTAS 160707Z 11007KT 18/14 A3001 RMK A01 T01760135  RH  077%=      5-min Rain = 0
KTAS 160708Z 11007KT 18/14 A3001 RMK A01 T01760135  RH  077%=      5-min Rain = 0
KTAS 160709Z 12006KT 18/14 A3001 RMK A01 T01760135  RH  077%=      5-min Rain = 0
KTAS 160710Z 12006KT 18/14 A3001 RMK A01 T01760135  RH  077%=      5-min Rain = 0
KTAS 160711Z 12006KT 18/14 A30 RMK A01 T01760135  RH  077%=      5-min Rain = 0
KTAS 160712Z 12006KT 18/14 A30 RMK A01 T01760135  RH  077%=      5-min Rain = 0
KTAS 160713Z 12006KT 18/14 A30 RMK A01 T01760135  RH  077%=      5-min Rain = 0
KTAS 160714Z 13005KT 18/14 A30 RMK A01 T01750135  RH  077%=      5-min Rain = 0
KTAS 160715Z 12005KT 18/14 A30 RMK A01 T01750135  RH  077%=      5-min Rain = 0
KTAS 160716Z 12005KT 18/14 A30 RMK A01 T01750135  RH  077%=      5-min Rain = 0
KTAS 160717Z 10005KT 17/13 A30 RMK A01 T01740134  RH  077%=      5-min Rain = 0
KTAS 160718Z 10005KT 17/13 A30 RMK A01 T01740134  RH  077%=      5-min Rain = 0
KTAS 160719Z 10006KT 17/13 A30 RMK A01 T01730134  RH  078%=      5-min Rain = 0
KTAS 160720Z 10006KT 17/13 A30 RMK A01 T01730134  RH  078%=      5-min Rain = 0
KTAS 160721Z 10005KT 17/14 A30 RMK A01 T01730135  RH  078%=      5-min Rain = 0
KTAS 160722Z 10005KT 17/13 A30 RMK A01 T01730134  RH  078%=      5-min Rain = 0
KTAS 160723Z 09004KT 17/13 A30 RMK A01 T01720134  RH  078%=      5-min Rain = 0
KTAS 160724Z 09005KT 17/13 A30 RMK A01 T01720134  RH  078%=      5-min Rain = 0
KTAS 160725Z 08005KT 17/13 A30 RMK A01 T01710134  RH  079%=      5-min Rain = 0
KTAS 160726Z 08006KT 17/13 A30 RMK A01 T01700133  RH  079%=      5-min Rain = 0
KTAS 160727Z 08006KT 17/13 A30 RMK A01 T01690133  RH  079%=      5-min Rain = 0
KTAS 160728Z 08006KT 17/13 A30 RMK A01 T01690133  RH  079%=      5-min Rain = 0
KTAS 160729Z 08006KT 17/13 A30 RMK A01 T01680133  RH  080%=      5-min Rain = 0
KTAS 160730Z 08006KT 17/13 A30 RMK A01 T01680133  RH  080%=      5-min Rain = 0
KTAS 160731Z 09006KT 17/13 A30 RMK A01 T01680133  RH  080%=      5-min Rain = 0
KTAS 160732Z 09007KT 17/13 A30 RMK A01 T01670133  RH  080%=      5-min Rain = 0
KTAS 160733Z 10007KT 17/13 A30 RMK A01 T01670134  RH  081%=      5-min Rain = 0
KTAS 160734Z 10007KT 17/14 A30 RMK A01 T01680135  RH  081%=      5-min Rain = 0
KTAS 160735Z 11008KT 17/14 A30 RMK A01 T01690136  RH  081%=      5-min Rain = 0
KTAS 160736Z 11008KT 17/14 A2999 RMK A01 T01690136  RH  081%=      5-min Rain = 0
KTAS 160737Z 11008KT 17/14 A2999 RMK A01 T01700137  RH  081%=      5-min Rain = 0
KTAS 160738Z 12008KT 17/14 A2999 RMK A01 T01710137  RH  081%=      5-min Rain = 0
KTAS 160739Z 12008KT 17/14 A2999 RMK A01 T01710138  RH  081%=      5-min Rain = 0
KTAS 160740Z 12008KT 17/14 A2999 RMK A01 T01720138  RH  080%=      5-min Rain = 0
KTAS 160741Z 12009KT 17/14 A2999 RMK A01 T01720138  RH  080%=      5-min Rain = 0
KTAS 160742Z 12009KT 17/14 A2999 RMK A01 T01730139  RH  080%=      5-min Rain = 0
KTAS 160743Z 12007KT 17/14 A2999 RMK A01 T01740139  RH  080%=      5-min Rain = 0
KTAS 160744Z 13008KT 17/14 A2999 RMK A01 T01740139  RH  080%=      5-min Rain = 0
KTAS 160745Z 13007KT 17/14 A2999 RMK A01 T01740139  RH  080%=      5-min Rain = 0
KTAS 160746Z 13006KT 17/14 A2999 RMK A01 T01740139  RH  080%=      5-min Rain = 0
KTAS 160747Z 13008KT 17/14 A2999 RMK A01 T01740139  RH  080%=      5-min Rain = 0
KTAS 160748Z 13007KT 17/14 A2999 RMK A01 T01740139  RH  080%=      5-min Rain = 0
KTAS 160749Z 14008KT 18/14 A2999 RMK A01 T01750139  RH  080%=      5-min Rain = 0
KTAS 160750Z 14008KT 18/14 A2999 RMK A01 T01750139  RH  080%=      5-min Rain = 0
KTAS 160751Z 14008KT 18/14 A2999 RMK A01 T01750139  RH  079%=      5-min Rain = 0
KTAS 160752Z 13008KT 18/14 A2999 RMK A01 T01750139  RH  079%=      5-min Rain = 0
KTAS 160753Z 13008KT 18/14 A2999 RMK A01 T01750139  RH  079%=      5-min Rain = 0
KTAS 160754Z 13008KT 18/14 A2999 RMK A01 T01750139  RH  079%=      5-min Rain = 0
KTAS 160755Z 13009KT 18/14 A2999 RMK A01 T01750139  RH  079%=      5-min Rain = 0
KTAS 160756Z 13008KT 18/14 A2999 RMK A01 T01750139  RH  079%=      5-min Rain = 0
KTAS 160757Z 13009KT 18/14 A2999 RMK A01 T01750139  RH  079%=      5-min Rain = 0
KTAS 160758Z 13009KT 18/14 A2999 RMK A01 T01750140  RH  079%=      5-min Rain = 0
KTAS 160759Z 13008KT 18/14 A2999 RMK A01 T01760140  RH  079%=      5-min Rain = 0
KTAS 160800Z 13007KT 18/14 A2999 RMK A01 T01760140  RH  079%=      5-min Rain = 0
KTAS 160801Z 13008KT 18/14 A2999 RMK A01 T01750140  RH  079%=      5-min Rain = 0
KTAS 160802Z 12009KT 18/14 A2999 RMK A01 T01750140  RH  080%=      5-min Rain = 0
KTAS 160803Z 12009KT 18/14 A2999 RMK A01 T01750140  RH  080%=      5-min Rain = 0
KTAS 160804Z 12008KT 18/14 A2999 RMK A01 T01750140  RH  080%=      5-min Rain = 0
KTAS 160805Z 12007KT 18/14 A2999 RMK A01 T01750140  RH  080%=      5-min Rain = 0
KTAS 160806Z 12008KT 18/14 A2999 RMK A01 T01750140  RH  080%=      5-min Rain = 0
KTAS 160807Z 12007KT 18/14 A2999 RMK A01 T01750141  RH  080%=      5-min Rain = 0
KTAS 160808Z 12007KT 18/14 A2999 RMK A01 T01750141  RH  080%=      5-min Rain = 0
KTAS 160809Z 12007KT 18/14 A2999 RMK A01 T01750141  RH  080%=      5-min Rain = 0
KTAS 160810Z 13007KT 18/14 A2999 RMK A01 T01750141  RH  080%=      5-min Rain = 0
KTAS 160811Z 13007KT 18/14 A2999 RMK A01 T01750141  RH  081%=      5-min Rain = 0
KTAS 160812Z 13007KT 18/14 A2999 RMK A01 T01750141  RH  080%=      5-min Rain = 0
KTAS 160813Z 13006KT 18/14 A2999 RMK A01 T01750141  RH  080%=      5-min Rain = 0
KTAS 160814Z 13006KT 18/14 A2999 RMK A01 T01750141  RH  080%=      5-min Rain = 0
KTAS 160815Z 13006KT 18/14 A2999 RMK A01 T01750141  RH  080%=      5-min Rain = 0
KTAS 160816Z 13006KT 18/14 A2999 RMK A01 T01750140  RH  080%=      5-min Rain = 0
KTAS 160817Z 12006KT 18/14 A2999 RMK A01 T01750140  RH  080%=      5-min Rain = 0
KTAS 160818Z 12006KT 18/14 A2999 RMK A01 T01750140  RH  080%=      5-min Rain = 0
KTAS 160819Z 11007KT 18/14 A2999 RMK A01 T01750140  RH  080%=      5-min Rain = 0
KTAS 160820Z 11006KT 18/14 A2999 RMK A01 T01750140  RH  080%=      5-min Rain = 0
KTAS 160821Z 11007KT 17/14 A2999 RMK A01 T01740139  RH  080%=      5-min Rain = 0
KTAS 160822Z 11006KT 17/14 A2999 RMK A01 T01740140  RH  080%=      5-min Rain = 0
KTAS 160823Z 11006KT 17/14 A2999 RMK A01 T01740139  RH  080%=      5-min Rain = 0
KTAS 160824Z 11006KT 17/14 A2999 RMK A01 T01740139  RH  080%=      5-min Rain = 0
KTAS 160825Z 10007KT 17/14 A2999 RMK A01 T01740139  RH  080%=      5-min Rain = 0
KTAS 160826Z 11007KT 17/14 A2999 RMK A01 T01740139  RH  080%=      5-min Rain = 0
KTAS 160827Z 11007KT 17/14 A2999 RMK A01 T01740140  RH  080%=      5-min Rain = 0
KTAS 160828Z 11007KT 17/14 A2999 RMK A01 T01740140  RH  080%=      5-min Rain = 0
KTAS 160829Z 11006KT 17/14 A2999 RMK A01 T01740140  RH  080%=      5-min Rain = 0
KTAS 160830Z 11006KT 17/14 A2999 RMK A01 T01740140  RH  080%=      5-min Rain = 0
KTAS 160831Z 11006KT 17/14 A2999 RMK A01 T01740140  RH  080%=      5-min Rain = 0
KTAS 160832Z 11006KT 17/14 A2999 RMK A01 T01730140  RH  081%=      5-min Rain = 0
KTAS 160833Z 11007KT 17/14 A2999 RMK A01 T01730140  RH  081%=      5-min Rain = 0
KTAS 160834Z 12007KT 17/14 A2999 RMK A01 T01730140  RH  081%=      5-min Rain = 0
KTAS 160835Z 13007KT 17/14 A2999 RMK A01 T01740140  RH  081%=      5-min Rain = 0
KTAS 160836Z 13007KT 17/14 A2998 RMK A01 T01740141  RH  081%=      5-min Rain = 0
KTAS 160837Z 14007KT 17/14 A2998 RMK A01 T01740141  RH  081%=      5-min Rain = 0
KTAS 160838Z 14008KT 17/14 A2998 RMK A01 T01740141  RH  081%=      5-min Rain = 0
KTAS 160839Z 14007KT 18/14 A2998 RMK A01 T01750142  RH  081%=      5-min Rain = 0
KTAS 160840Z 14007KT 18/14 A2998 RMK A01 T01750141  RH  081%=      5-min Rain = 0
KTAS 160841Z 15007KT 18/14 A2998 RMK A01 T01750141  RH  081%=      5-min Rain = 0
KTAS 160842Z 15007KT 17/14 A2998 RMK A01 T01740141  RH  081%=      5-min Rain = 0
KTAS 160843Z 15008KT 17/14 A2998 RMK A01 T01740141  RH  081%=      5-min Rain = 0
KTAS 160844Z 15008KT 17/14 A2998 RMK A01 T01740141  RH  081%=      5-min Rain = 0
KTAS 160845Z 15008KT 17/14 A2998 RMK A01 T01740141  RH  081%=      5-min Rain = 0
KTAS 160846Z 15008KT 18/14 A2998 RMK A01 T01750141  RH  081%=      5-min Rain = 0
KTAS 160847Z 15008KT 18/14 A2998 RMK A01 T01750141  RH  081%=      5-min Rain = 0
KTAS 160848Z 15008KT 18/14 A2998 RMK A01 T01750141  RH  080%=      5-min Rain = 0
KTAS 160849Z 14008KT 18/14 A2997 RMK A01 T01750141  RH  080%=      5-min Rain = 0
KTAS 160850Z 14008KT 18/14 A2998 RMK A01 T01750141  RH  080%=      5-min Rain = 0
KTAS 160851Z 14008KT 18/14 A2998 RMK A01 T01750141  RH  080%=      5-min Rain = 0
KTAS 160852Z 14009KT 18/14 A2998 RMK A01 T01750141  RH  080%=      5-min Rain = 0
KTAS 160853Z 14009KT 18/14 A2998 RMK A01 T01750141  RH  080%=      5-min Rain = 0
KTAS 160854Z 14009KT 18/14 A2998 RMK A01 T01750141  RH  080%=      5-min Rain = 0
KTAS 160855Z 13009KT 18/14 A2998 RMK A01 T01750141  RH  080%=      5-min Rain = 0
KTAS 160856Z 13008KT 17/14 A2998 RMK A01 T01740141  RH  080%=      5-min Rain = 0
KTAS 160857Z 13007KT 17/14 A2998 RMK A01 T01740140  RH  081%=      5-min Rain = 0
KTAS 160858Z 14008KT 17/14 A2998 RMK A01 T01740140  RH  081%=      5-min Rain = 0
KTAS 160859Z 14008KT 17/14 A2998 RMK A01 T01740141  RH  081%=      5-min Rain = 0
KTAS 160900Z 14008KT 17/14 A2998 RMK A01 T01730140  RH  081%=      5-min Rain = 0
KTAS 160901Z 14008KT 17/14 A2998 RMK A01 T01730140  RH  081%=      5-min Rain = 0
KTAS 160902Z 14010KT 17/14 A2998 RMK A01 T01730140  RH  081%=      5-min Rain = 0
KTAS 160903Z 14009KT 17/14 A2998 RMK A01 T01730141  RH  081%=      5-min Rain = 0
KTAS 160904Z 14008KT 17/14 A2998 RMK A01 T01730141  RH  082%=      5-min Rain = 0
KTAS 160905Z 14007KT 17/14 A2998 RMK A01 T01720141  RH  082%=      5-min Rain = 0
KTAS 160906Z 14008KT 17/14 A2998 RMK A01 T01720140  RH  082%=      5-min Rain = 0
KTAS 160907Z 13008KT 17/14 A2998 RMK A01 T01710140  RH  082%=      5-min Rain = 0
KTAS 160908Z 14007KT 17/14 A2998 RMK A01 T01710140  RH  082%=      5-min Rain = 0
KTAS 160909Z 13007KT 17/14 A2998 RMK A01 T01710141  RH  082%=      5-min Rain = 0
KTAS 160910Z 13008KT 17/14 A2998 RMK A01 T01710140  RH  082%=      5-min Rain = 0
KTAS 160911Z 13009KT 17/14 A2997 RMK A01 T01710141  RH  083%=      5-min Rain = 0
KTAS 160912Z 13010KT 17/14 A2997 RMK A01 T01710142  RH  083%=      5-min Rain = 0
KTAS 160913Z 13009KT 17/14 A2997 RMK A01 T01710142  RH  083%=      5-min Rain = 0
KTAS 160914Z 14009KT 17/14 A2997 RMK A01 T01710142  RH  083%=      5-min Rain = 0
KTAS 160915Z 14009KT 17/14 A2997 RMK A01 T01710142  RH  083%=      5-min Rain = 0
KTAS 160916Z 14009KT 17/14 A2997 RMK A01 T01710142  RH  083%=      5-min Rain = 0
KTAS 160917Z 14009KT 17/14 A2997 RMK A01 T01700142  RH  084%=      5-min Rain = 0
KTAS 160918Z 14010KT 17/14 A2997 RMK A01 T01700142  RH  084%=      5-min Rain = 0
KTAS 160919Z 14009KT 17/14 A2997 RMK A01 T01700142  RH  084%=      5-min Rain = 0
KTAS 160920Z 14010KT 17/14 A2997 RMK A01 T01690142  RH  084%=      5-min Rain = 0
KTAS 160921Z 15009KT 17/14 A2997 RMK A01 T01690142  RH  084%=      5-min Rain = 0
KTAS 160922Z 14009KT 17/14 A2997 RMK A01 T01690142  RH  084%=      5-min Rain = 0
KTAS 160923Z 15009KT 17/14 A2997 RMK A01 T01690142  RH  084%=      5-min Rain = 0
KTAS 160924Z 14009KT 17/14 A2997 RMK A01 T01680142  RH  085%=      5-min Rain = 0
KTAS 160925Z 15008KT 17/14 A2997 RMK A01 T01680142  RH  085%=      5-min Rain = 0
KTAS 160926Z 14009KT 17/14 A2998 RMK A01 T01680142  RH  085%=      5-min Rain = 0
KTAS 160927Z 14009KT 17/14 A2998 RMK A01 T01680143  RH  085%=      5-min Rain = 0
KTAS 160928Z 15009KT 17/14 A2998 RMK A01 T01680143  RH  085%=      5-min Rain = 0
KTAS 160929Z 14009KT 17/14 A2998 RMK A01 T01680143  RH  085%=      5-min Rain = 0
KTAS 160930Z 15008KT 17/14 A2998 RMK A01 T01680143  RH  085%=      5-min Rain = 0
KTAS 160931Z 14008KT 17/14 A2998 RMK A01 T01670143  RH  085%=      5-min Rain = 0
KTAS 160932Z 15008KT 17/14 A2998 RMK A01 T01670143  RH  085%=      5-min Rain = 0
KTAS 160933Z 14007KT 17/14 A2998 RMK A01 T01670143  RH  086%=      5-min Rain = 0
KTAS 160934Z 14007KT 17/14 A2998 RMK A01 T01670143  RH  086%=      5-min Rain = 0
KTAS 160935Z 15008KT 17/14 A2998 RMK A01 T01670143  RH  086%=      5-min Rain = 0
KTAS 160936Z 15008KT 17/14 A2998 RMK A01 T01660143  RH  086%=      5-min Rain = 0
KTAS 160937Z 14006KT 17/14 A2998 RMK A01 T01660143  RH  086%=      5-min Rain = 0
KTAS 160938Z 14007KT 17/14 A2998 RMK A01 T01660143  RH  086%=      5-min Rain = 0
KTAS 160939Z 15006KT 17/14 A2998 RMK A01 T01660143  RH  086%=      5-min Rain = 0
KTAS 160940Z 14006KT 17/14 A2998 RMK A01 T01660143  RH  086%=      5-min Rain = 0
KTAS 160941Z 14006KT 17/14 A2998 RMK A01 T01660143  RH  086%=      5-min Rain = 0
KTAS 160942Z 14005KT 17/14 A2998 RMK A01 T01660143  RH  086%=      5-min Rain = 0
KTAS 160943Z 14005KT 17/14 A2998 RMK A01 T01660143  RH  086%=      5-min Rain = 0
KTAS 160944Z 12005KT 17/14 A2999 RMK A01 T01660143  RH  086%=      5-min Rain = 0
KTAS 160945Z 10004KT 17/14 A2999 RMK A01 T01660142  RH  086%=      5-min Rain = 0
KTAS 160946Z 08005KT 17/14 A30 RMK A01 T01650141  RH  086%=      5-min Rain = 0
KTAS 160947Z 07006KT 16/14 A30 RMK A01 T01640141  RH  086%=      5-min Rain = 0
KTAS 160948Z 05007KT 16/14 A30 RMK A01 T01640141  RH  086%=      5-min Rain = 0
KTAS 160949Z 05008KT 16/14 A3001 RMK A01 T01640141  RH  086%=      5-min Rain = 0
KTAS 160950Z 04009KT 16/14 A3001 RMK A01 T01630140  RH  086%=      5-min Rain = 0
KTAS 160951Z 04010KT 16/14 A3001 RMK A01 T01630141  RH  086%=      5-min Rain = 0
KTAS 160952Z 03011KT 16/14 A3001 RMK A01 T01640141  RH  086%=      5-min Rain = 0
KTAS 160953Z 04011KT 17/14 A3001 RMK A01 T01650142  RH  087%=      5-min Rain = 0
KTAS 160954Z 04012KT 17/14 A3001 RMK A01 T01650142  RH  087%=      5-min Rain = 0
KTAS 160955Z 04012KT 17/14 A3001 RMK A01 T01650143  RH  087%=      5-min Rain = 0
KTAS 160956Z 04013KT 17/14 A3001 RMK A01 T01650143  RH  087%=      5-min Rain = 0
KTAS 160957Z 04012KT 17/14 A3001 RMK A01 T01650143  RH  087%=      5-min Rain = 0
KTAS 160958Z 05011KT 17/14 A3001 RMK A01 T01650143  RH  087%=      5-min Rain = 0
KTAS 160959Z 05010KT 17/14 A3001 RMK A01 T01660144  RH  087%=      5-min Rain = 0
KTAS 161000Z 06009KT 17/14 A3001 RMK A01 T01660144  RH  087%=      5-min Rain = 0
KTAS 161001Z 06006KT 17/14 A3001 RMK A01 T01660144  RH  087%=      5-min Rain = 0
KTAS 161002Z 07005KT 17/14 A3001 RMK A01 T01660144  RH  087%=      5-min Rain = 0
KTAS 161003Z 11005KT 17/14 A3001 RMK A01 T01660144  RH  087%=      5-min Rain = 0
KTAS 161004Z 12006KT 17/14 A30 RMK A01 T01660144  RH  087%=      5-min Rain = 0
KTAS 161005Z 12005KT 17/14 A30 RMK A01 T01660143  RH  086%=      5-min Rain = 0
KTAS 161006Z 14007KT 17/14 A30 RMK A01 T01650143  RH  086%=      5-min Rain = 0
KTAS 161007Z 14008KT 17/14 A30 RMK A01 T01650142  RH  086%=      5-min Rain = 0
KTAS 161008Z 13006KT 17/14 A30 RMK A01 T01650142  RH  086%=      5-min Rain = 0
KTAS 161009Z 13007KT 17/14 A30 RMK A01 T01650142  RH  086%=      5-min Rain = 0
KTAS 161010Z 12007KT 17/14 A30 RMK A01 T01650142  RH  086%=      5-min Rain = 0
KTAS 161011Z 12007KT 17/14 A30 RMK A01 T01650142  RH  086%=      5-min Rain = 0
KTAS 161012Z 12006KT 16/14 A30 RMK A01 T01640141  RH  086%=      5-min Rain = 0
KTAS 161013Z 11008KT 16/14 A30 RMK A01 T01640141  RH  086%=      5-min Rain = 0
KTAS 161014Z 10007KT 16/14 A30 RMK A01 T01640141  RH  087%=      5-min Rain = 0
KTAS 161015Z 10007KT 16/14 A3001 RMK A01 T01640141  RH  086%=      5-min Rain = 0
KTAS 161016Z 09006KT 16/14 A3001 RMK A01 T01640141  RH  086%=      5-min Rain = 0
KTAS 161017Z 08007KT 16/14 A3001 RMK A01 T01630141  RH  086%=      5-min Rain = 0
KTAS 161018Z 07007KT 16/14 A3001 RMK A01 T01630140  RH  086%=      5-min Rain = 0
KTAS 161019Z 07007KT 16/14 A3001 RMK A01 T01630140  RH  086%=      5-min Rain = 0
KTAS 161020Z 07007KT 16/14 A3001 RMK A01 T01620139  RH  086%=      5-min Rain = 0
KTAS 161021Z 07007KT 16/14 A3001 RMK A01 T01620139  RH  086%=      5-min Rain = 0
KTAS 161022Z 07006KT 16/14 A3001 RMK A01 T01610139  RH  087%=      5-min Rain = 0
KTAS 161023Z 06007KT 16/14 A3001 RMK A01 T01610139  RH  086%=      5-min Rain = 0
KTAS 161024Z 07007KT 16/14 A3001 RMK A01 T01610139  RH  087%=      5-min Rain = 0
KTAS 161025Z 07007KT 16/14 A3001 RMK A01 T01610138  RH  087%=      5-min Rain = 0
KTAS 161026Z 07007KT 16/14 A3001 RMK A01 T01600138  RH  087%=      5-min Rain = 0
KTAS 161027Z 08007KT 16/14 A3001 RMK A01 T01600138  RH  087%=      5-min Rain = 0
KTAS 161028Z 08006KT 16/14 A3001 RMK A01 T01600138  RH  087%=      5-min Rain = 0
KTAS 161029Z 09007KT 16/14 A3001 RMK A01 T01590137  RH  087%=      5-min Rain = 0
KTAS 161030Z 09007KT 16/14 A3001 RMK A01 T01600137  RH  087%=      5-min Rain = 0
KTAS 161031Z 10007KT 16/14 A3001 RMK A01 T01600137  RH  087%=      5-min Rain = 0
KTAS 161032Z 10006KT 16/14 A3001 RMK A01 T01600137  RH  087%=      5-min Rain = 0
KTAS 161033Z 11006KT 16/14 A3001 RMK A01 T01590137  RH  087%=      5-min Rain = 0
KTAS 161034Z 11006KT 16/14 A3001 RMK A01 T01590137  RH  087%=      5-min Rain = 0
KTAS 161035Z 12006KT 16/14 A3001 RMK A01 T01590137  RH  087%=      5-min Rain = 0
KTAS 161036Z 12007KT 16/14 A3001 RMK A01 T01590137  RH  087%=      5-min Rain = 0
KTAS 161037Z 12006KT 16/14 A3001 RMK A01 T01590137  RH  087%=      5-min Rain = 0
KTAS 161038Z 12007KT 16/14 A3001 RMK A01 T01590137  RH  087%=      5-min Rain = 0
KTAS 161039Z 12008KT 16/14 A3001 RMK A01 T01600138  RH  087%=      5-min Rain = 0
KTAS 161040Z 12009KT 16/14 A3001 RMK A01 T01600138  RH  087%=      5-min Rain = 0
KTAS 161041Z 12008KT 16/14 A3001 RMK A01 T01600138  RH  087%=      5-min Rain = 0
KTAS 161042Z 12009KT 16/14 A3001 RMK A01 T01610138  RH  086%=      5-min Rain = 0
KTAS 161043Z 12008KT 16/14 A3001 RMK A01 T01610138  RH  086%=      5-min Rain = 0
KTAS 161044Z 12008KT 16/14 A3001 RMK A01 T01610138  RH  086%=      5-min Rain = 0
KTAS 161045Z 12007KT 16/14 A3001 RMK A01 T01610138  RH  086%=      5-min Rain = 0
KTAS 161046Z 12006KT 16/14 A3001 RMK A01 T01610138  RH  086%=      5-min Rain = 0
KTAS 161047Z 11006KT 16/14 A3001 RMK A01 T01610138  RH  086%=      5-min Rain = 0
KTAS 161048Z 11006KT 16/14 A3001 RMK A01 T01610138  RH  086%=      5-min Rain = 0
KTAS 161049Z 10006KT 16/14 A3001 RMK A01 T01610137  RH  086%=      5-min Rain = 0
KTAS 161050Z 10006KT 16/14 A3001 RMK A01 T01610137  RH  086%=      5-min Rain = 0
KTAS 161051Z 10006KT 16/14 A3001 RMK A01 T01600136  RH  086%=      5-min Rain = 0
KTAS 161052Z 09007KT 16/14 A3001 RMK A01 T01600136  RH  086%=      5-min Rain = 0
KTAS 161053Z 09006KT 16/14 A3001 RMK A01 T01600136  RH  086%=      5-min Rain = 0
KTAS 161054Z 09007KT 16/14 A3001 RMK A01 T01600136  RH  086%=      5-min Rain = 0
KTAS 161055Z 09007KT 16/14 A3001 RMK A01 T01600136  RH  086%=      5-min Rain = 0
KTAS 161056Z 09007KT 16/14 A3001 RMK A01 T01600136  RH  086%=      5-min Rain = 0
KTAS 161057Z 09007KT 16/14 A3001 RMK A01 T01600136  RH  086%=      5-min Rain = 0
KTAS 161058Z 09006KT 16/14 A3001 RMK A01 T01600136  RH  086%=      5-min Rain = 0
KTAS 161059Z 09006KT 16/14 A3001 RMK A01 T01590136  RH  086%=      5-min Rain = 0
KTAS 161100Z 09006KT 16/14 A3001 RMK A01 T01590136  RH  086%=      5-min Rain = 0
KTAS 161101Z 10006KT 16/14 A3001 RMK A01 T01590136  RH  086%=      5-min Rain = 0
KTAS 161102Z 11006KT 16/14 A3001 RMK A01 T01590136  RH  086%=      5-min Rain = 0
KTAS 161103Z 11005KT 16/14 A3001 RMK A01 T01590136  RH  086%=      5-min Rain = 0
KTAS 161104Z 12005KT 16/14 A3001 RMK A01 T01590136  RH  086%=      5-min Rain = 0
KTAS 161105Z 12006KT 16/14 A3001 RMK A01 T01590136  RH  086%=      5-min Rain = 0
KTAS 161106Z 13006KT 16/14 A3001 RMK A01 T01580136  RH  087%=      5-min Rain = 0
KTAS 161107Z 13007KT 16/14 A3001 RMK A01 T01580136  RH  087%=      5-min Rain = 0
KTAS 161108Z 13007KT 16/14 A3001 RMK A01 T01580136  RH  087%=      5-min Rain = 0
KTAS 161109Z 13006KT 16/14 A3001 RMK A01 T01580136  RH  087%=      5-min Rain = 0
KTAS 161110Z 13007KT 16/14 A30 RMK A01 T01580136  RH  087%=      5-min Rain = 0
KTAS 161111Z 13007KT 16/14 A30 RMK A01 T01580136  RH  087%=      5-min Rain = 0
KTAS 161112Z 13008KT 16/14 A30 RMK A01 T01580136  RH  087%=      5-min Rain = 0
KTAS 161113Z 13008KT 16/14 A30 RMK A01 T01580137  RH  087%=      5-min Rain = 0
KTAS 161114Z 13008KT 16/14 A30 RMK A01 T01590137  RH  087%=      5-min Rain = 0
KTAS 161115Z 13008KT 16/14 A30 RMK A01 T01590137  RH  087%=      5-min Rain = 0
KTAS 161116Z 13008KT 16/14 A30 RMK A01 T01590137  RH  087%=      5-min Rain = 0
KTAS 161117Z 13008KT 16/14 A30 RMK A01 T01590137  RH  087%=      5-min Rain = 0
KTAS 161118Z 13008KT 16/14 A30 RMK A01 T01600137  RH  087%=      5-min Rain = 0
KTAS 161119Z 13009KT 16/14 A30 RMK A01 T01600137  RH  086%=      5-min Rain = 0
KTAS 161120Z 13008KT 16/14 A30 RMK A01 T01600138  RH  086%=      5-min Rain = 0
KTAS 161121Z 13008KT 16/14 A30 RMK A01 T01610138  RH  086%=      5-min Rain = 0
KTAS 161122Z 13007KT 16/14 A30 RMK A01 T01610138  RH  086%=      5-min Rain = 0
KTAS 161123Z 13007KT 16/14 A30 RMK A01 T01610138  RH  086%=      5-min Rain = 0
KTAS 161124Z 13007KT 16/14 A30 RMK A01 T01610137  RH  086%=      5-min Rain = 0
KTAS 161125Z 13007KT 16/14 A30 RMK A01 T01610137  RH  086%=      5-min Rain = 0
KTAS 161126Z 13007KT 16/14 A30 RMK A01 T01620138  RH  086%=      5-min Rain = 0
KTAS 161127Z 13006KT 16/14 A30 RMK A01 T01610137  RH  085%=      5-min Rain = 0
KTAS 161128Z 13006KT 16/14 A30 RMK A01 T01610137  RH  085%=      5-min Rain = 0
KTAS 161129Z 13006KT 16/14 A30 RMK A01 T01610137  RH  085%=      5-min Rain = 0
KTAS 161130Z 13007KT 16/14 A30 RMK A01 T01610137  RH  085%=      5-min Rain = 0
KTAS 161131Z 12007KT 16/14 A30 RMK A01 T01610137  RH  086%=      5-min Rain = 0
KTAS 161132Z 13007KT 16/14 A30 RMK A01 T01610137  RH  086%=      5-min Rain = 0
KTAS 161133Z 12007KT 16/14 A30 RMK A01 T01610137  RH  086%=      5-min Rain = 0
KTAS 161134Z 12006KT 16/14 A30 RMK A01 T01610137  RH  086%=      5-min Rain = 0
KTAS 161135Z 12007KT 16/14 A30 RMK A01 T01600136  RH  086%=      5-min Rain = 0
KTAS 161136Z 12006KT 16/14 A30 RMK A01 T01600136  RH  086%=      5-min Rain = 0
KTAS 161137Z 12006KT 16/14 A30 RMK A01 T01600136  RH  086%=      5-min Rain = 0
KTAS 161138Z 12007KT 16/14 A30 RMK A01 T01590136  RH  086%=      5-min Rain = 0
KTAS 161139Z 12006KT 16/14 A30 RMK A01 T01590135  RH  086%=      5-min Rain = 0
KTAS 161140Z 12007KT 16/14 A30 RMK A01 T01580135  RH  086%=      5-min Rain = 0
KTAS 161141Z 13007KT 16/14 A30 RMK A01 T01580135  RH  086%=      5-min Rain = 0
KTAS 161142Z 13006KT 16/14 A30 RMK A01 T01580135  RH  086%=      5-min Rain = 0
KTAS 161143Z 13006KT 16/14 A30 RMK A01 T01580135  RH  086%=      5-min Rain = 0
KTAS 161144Z 13007KT 16/14 A30 RMK A01 T01580135  RH  086%=      5-min Rain = 0
KTAS 161145Z 13007KT 16/14 A30 RMK A01 T01580136  RH  087%=      5-min Rain = 0
KTAS 161146Z 13007KT 16/14 A30 RMK A01 T01570135  RH  087%=      5-min Rain = 0
KTAS 161147Z 13008KT 16/14 A30 RMK A01 T01570135  RH  087%=      5-min Rain = 0
KTAS 161148Z 14007KT 16/14 A30 RMK A01 T01570135  RH  087%=      5-min Rain = 0
KTAS 161149Z 14007KT 16/14 A30 RMK A01 T01570136  RH  087%=      5-min Rain = 0
KTAS 161150Z 14006KT 16/14 A30 RMK A01 T01570136  RH  087%=      5-min Rain = 0
KTAS 161151Z 15006KT 16/14 A30 RMK A01 T01570136  RH  087%=      5-min Rain = 0
KTAS 161152Z 15005KT 16/14 A2999 RMK A01 T01570136  RH  087%=      5-min Rain = 0
KTAS 161153Z 15005KT 16/14 A2999 RMK A01 T01570136  RH  087%=      5-min Rain = 0
KTAS 161154Z 15006KT 16/14 A2999 RMK A01 T01560135  RH  087%=      5-min Rain = 0
KTAS 161155Z 14006KT 16/14 A2999 RMK A01 T01560135  RH  087%=      5-min Rain = 0
KTAS 161156Z 14005KT 16/14 A2999 RMK A01 T01560135  RH  087%=      5-min Rain = 0
KTAS 161157Z 13006KT 16/14 A2999 RMK A01 T01560135  RH  087%=      5-min Rain = 0
KTAS 161158Z 12007KT 16/14 A30 RMK A01 T01550135  RH  088%=      5-min Rain = 0
KTAS 161159Z 12008KT 16/14 A30 RMK A01 T01550135  RH  088%=      5-min Rain = 0
KTAS 161200Z 11007KT 16/14 A30 RMK A01 T01560135  RH  088%=      5-min Rain = 0
KTAS 161201Z 11009KT 16/14 A30 RMK A01 T01550135  RH  088%=      5-min Rain = 0
KTAS 161202Z 11009KT 16/14 A30 RMK A01 T01560136  RH  088%=      5-min Rain = 0
KTAS 161203Z 11008KT 16/14 A30 RMK A01 T01560137  RH  088%=      5-min Rain = 0
KTAS 161204Z 11008KT 16/14 A30 RMK A01 T01560137  RH  088%=      5-min Rain = 0
KTAS 161205Z 11007KT 16/14 A30 RMK A01 T01560137  RH  088%=      5-min Rain = 0
KTAS 161206Z 11007KT 16/14 A30 RMK A01 T01560137  RH  088%=      5-min Rain = 0
KTAS 161207Z 12007KT 16/14 A30 RMK A01 T01560137  RH  088%=      5-min Rain = 0
KTAS 161208Z 12007KT 16/14 A30 RMK A01 T01560137  RH  088%=      5-min Rain = 0
KTAS 161209Z 12007KT 16/14 A30 RMK A01 T01560137  RH  088%=      5-min Rain = 0
KTAS 161210Z 12006KT 16/14 A3001 RMK A01 T01560137  RH  088%=      5-min Rain = 0
KTAS 161211Z 12007KT 16/14 A3001 RMK A01 T01560137  RH  088%=      5-min Rain = 0
KTAS 161212Z 12006KT 16/14 A3001 RMK A01 T01560137  RH  088%=      5-min Rain = 0
KTAS 161213Z 11007KT 16/14 A3001 RMK A01 T01570138  RH  088%=      5-min Rain = 0
KTAS 161214Z 11006KT 16/14 A3001 RMK A01 T01560137  RH  088%=      5-min Rain = 0
KTAS 161215Z 11006KT 16/14 A3001 RMK A01 T01570138  RH  089%=      5-min Rain = 0
KTAS 161216Z 10006KT 16/14 A3001 RMK A01 T01570138  RH  089%=      5-min Rain = 0
KTAS 161217Z 09006KT 16/14 A3001 RMK A01 T01570138  RH  089%=      5-min Rain = 0
KTAS 161218Z 10007KT 16/14 A3002 RMK A01 T01570139  RH  089%=      5-min Rain = 0
KTAS 161219Z 09007KT 16/14 A3002 RMK A01 T01580139  RH  089%=      5-min Rain = 0
KTAS 161220Z 08008KT 16/14 A3002 RMK A01 T01580139  RH  089%=      5-min Rain = 0
KTAS 161221Z 08007KT 16/14 A3002 RMK A01 T01580139  RH  089%=      5-min Rain = 0
KTAS 161222Z 08008KT 16/14 A3002 RMK A01 T01580139  RH  089%=      5-min Rain = 0
KTAS 161223Z 07007KT 16/14 A3002 RMK A01 T01580139  RH  089%=      5-min Rain = 0
KTAS 161224Z 07008KT 16/14 A3002 RMK A01 T01580139  RH  089%=      5-min Rain = 0
KTAS 161225Z 07007KT 16/14 A3003 RMK A01 T01570138  RH  089%=      5-min Rain = 0
KTAS 161226Z 07007KT 16/14 A3003 RMK A01 T01570138  RH  089%=      5-min Rain = 0
KTAS 161227Z 08006KT 16/14 A3003 RMK A01 T01570138  RH  089%=      5-min Rain = 0
KTAS 161228Z 08007KT 16/14 A3003 RMK A01 T01570138  RH  089%=      5-min Rain = 0
KTAS 161229Z 08009KT 16/14 A3003 RMK A01 T01570138  RH  089%=      5-min Rain = 0
KTAS 161230Z 09007KT 16/14 A3003 RMK A01 T01570139  RH  089%=      5-min Rain = 0
KTAS 161231Z 08009KT 16/14 A3003 RMK A01 T01580140  RH  089%=      5-min Rain = 0
KTAS 161232Z 08009KT 16/14 A3003 RMK A01 T01580140  RH  089%=      5-min Rain = 0
KTAS 161233Z 08008KT 16/14 A3003 RMK A01 T01580140  RH  089%=      5-min Rain = 0
KTAS 161234Z 09009KT 16/14 A3004 RMK A01 T01590140  RH  089%=      5-min Rain = 0
KTAS 161235Z 08009KT 16/14 A3004 RMK A01 T01590141  RH  089%=      5-min Rain = 0
KTAS 161236Z 08009KT 16/14 A3004 RMK A01 T01590141  RH  089%=      5-min Rain = 0
KTAS 161237Z 08007KT 16/14 A3004 RMK A01 T01600141  RH  089%=      5-min Rain = 0
KTAS 161238Z 08008KT 16/14 A3004 RMK A01 T01600142  RH  089%=      5-min Rain = 0
KTAS 161239Z 08008KT 16/14 A3005 RMK A01 T01610142  RH  088%=      5-min Rain = 0
KTAS 161240Z 08007KT 16/14 A3005 RMK A01 T01610142  RH  088%=      5-min Rain = 0
KTAS 161241Z 08009KT 16/14 A3005 RMK A01 T01620142  RH  088%=      5-min Rain = 0
KTAS 161242Z 09007KT 16/14 A3005 RMK A01 T01630142  RH  088%=      5-min Rain = 0
KTAS 161243Z 09007KT 16/14 A3005 RMK A01 T01630143  RH  088%=      5-min Rain = 0
KTAS 161244Z 09007KT 16/14 A3005 RMK A01 T01640143  RH  087%=      5-min Rain = 0
KTAS 161245Z 09007KT 16/14 A3005 RMK A01 T01640143  RH  087%=      5-min Rain = 0
KTAS 161246Z 09008KT 17/14 A3005 RMK A01 T01650142  RH  087%=      5-min Rain = 0
KTAS 161247Z 09008KT 17/14 A3005 RMK A01 T01650142  RH  086%=      5-min Rain = 0
KTAS 161248Z 08008KT 17/14 A3005 RMK A01 T01660143  RH  086%=      5-min Rain = 0
KTAS 161249Z 09008KT 17/14 A3005 RMK A01 T01660143  RH  086%=      5-min Rain = 0
KTAS 161250Z 09007KT 17/14 A3005 RMK A01 T01670143  RH  086%=      5-min Rain = 0
KTAS 161251Z 09008KT 17/14 A3005 RMK A01 T01670143  RH  086%=      5-min Rain = 0
KTAS 161252Z 09009KT 17/14 A3005 RMK A01 T01680143  RH  085%=      5-min Rain = 0
KTAS 161253Z 09009KT 17/14 A3005 RMK A01 T01680143  RH  085%=      5-min Rain = 0
KTAS 161254Z 09008KT 17/14 A3005 RMK A01 T01690143  RH  085%=      5-min Rain = 0
KTAS 161255Z 08007KT 17/14 A3005 RMK A01 T01690143  RH  085%=      5-min Rain = 0
KTAS 161256Z 07008KT 17/14 A3006 RMK A01 T01700143  RH  084%=      5-min Rain = 0
KTAS 161257Z 08007KT 17/14 A3006 RMK A01 T01700143  RH  084%=      5-min Rain = 0
KTAS 161258Z 07007KT 17/14 A3006 RMK A01 T01700143  RH  084%=      5-min Rain = 0
KTAS 161259Z 07006KT 17/14 A3006 RMK A01 T01700142  RH  084%=      5-min Rain = 0
KTAS 161300Z 07006KT 17/14 A3006 RMK A01 T01710143  RH  084%=      5-min Rain = 0
KTAS 161301Z 06006KT 17/14 A3007 RMK A01 T01710143  RH  084%=      5-min Rain = 0
KTAS 161302Z 06007KT 17/14 A3007 RMK A01 T01700142  RH  083%=      5-min Rain = 0
KTAS 161303Z 06006KT 17/14 A3007 RMK A01 T01700141  RH  083%=      5-min Rain = 0
KTAS 161304Z 05006KT 17/14 A3007 RMK A01 T01690141  RH  083%=      5-min Rain = 0
KTAS 161305Z 05007KT 17/14 A3007 RMK A01 T01690141  RH  083%=      5-min Rain = 0
KTAS 161306Z 05007KT 17/14 A3007 RMK A01 T01690141  RH  084%=      5-min Rain = 0
KTAS 161307Z 05006KT 17/14 A3008 RMK A01 T01690141  RH  084%=      5-min Rain = 0
KTAS 161308Z 05007KT 17/14 A3008 RMK A01 T01690141  RH  084%=      5-min Rain = 0
KTAS 161309Z 05006KT 17/14 A3008 RMK A01 T01690142  RH  084%=      5-min Rain = 0
KTAS 161310Z 06006KT 17/14 A3008 RMK A01 T01700142  RH  084%=      5-min Rain = 0
KTAS 161311Z 06007KT 17/14 A3008 RMK A01 T01700142  RH  084%=      5-min Rain = 0
KTAS 161312Z 05007KT 17/14 A3008 RMK A01 T01700142  RH  084%=      5-min Rain = 0
KTAS 161313Z 05006KT 17/14 A3007 RMK A01 T01700142  RH  083%=      5-min Rain = 0
KTAS 161314Z 05007KT 17/14 A3007 RMK A01 T01700142  RH  083%=      5-min Rain = 0
KTAS 161315Z 05006KT 17/14 A3007 RMK A01 T01700142  RH  083%=      5-min Rain = 0
KTAS 161316Z 05007KT 17/14 A3007 RMK A01 T01710142  RH  083%=      5-min Rain = 0
KTAS 161317Z 06007KT 17/14 A3007 RMK A01 T01720142  RH  083%=      5-min Rain = 0
KTAS 161318Z 08005KT 17/14 A3007 RMK A01 T01720142  RH  083%=      5-min Rain = 0
KTAS 161319Z 07006KT 17/14 A3007 RMK A01 T01730143  RH  082%=      5-min Rain = 0
KTAS 161320Z 09006KT 17/14 A3007 RMK A01 T01740144  RH  082%=      5-min Rain = 0
KTAS 161321Z 09009KT 18/14 A3007 RMK A01 T01750143  RH  082%=      5-min Rain = 0
KTAS 161322Z 08008KT 18/14 A3007 RMK A01 T01750142  RH  081%=      5-min Rain = 0
KTAS 161323Z 08008KT 18/14 A3007 RMK A01 T01770142  RH  080%=      5-min Rain = 0
KTAS 161324Z 07007KT 18/14 A3008 RMK A01 T01770142  RH  080%=      5-min Rain = 0
KTAS 161325Z 08008KT 18/14 A3008 RMK A01 T01770142  RH  080%=      5-min Rain = 0
KTAS 161326Z 08008KT 18/14 A3008 RMK A01 T01770142  RH  080%=      5-min Rain = 0
KTAS 161327Z 07008KT 18/14 A3008 RMK A01 T01770142  RH  080%=      5-min Rain = 0
KTAS 161328Z 07007KT 18/14 A3008 RMK A01 T01770142  RH  080%=      5-min Rain = 0
KTAS 161329Z 06008KT 18/14 A3008 RMK A01 T01780142  RH  080%=      5-min Rain = 0
KTAS 161330Z 06007KT 18/14 A3008 RMK A01 T01780142  RH  080%=      5-min Rain = 0
KTAS 161331Z 06007KT 18/14 A3008 RMK A01 T01780143  RH  080%=      5-min Rain = 0
KTAS 161332Z 06009KT 18/14 A3008 RMK A01 T01790143  RH  080%=      5-min Rain = 0
KTAS 161333Z 06009KT 18/14 A3009 RMK A01 T01780143  RH  080%=      5-min Rain = 0
KTAS 161334Z 06010KT 18/14 A3009 RMK A01 T01780143  RH  080%=      5-min Rain = 0
KTAS 161335Z 06011KT 18/14 A3009 RMK A01 T01780143  RH  080%=      5-min Rain = 0
KTAS 161336Z 06011KT 18/14 A3009 RMK A01 T01790143  RH  080%=      5-min Rain = 0
KTAS 161337Z 06010KT 18/14 A3009 RMK A01 T01790144  RH  080%=      5-min Rain = 0
KTAS 161338Z 06009KT 18/14 A3009 RMK A01 T01800144  RH  080%=      5-min Rain = 0
KTAS 161339Z 06009KT 18/15 A3009 RMK A01 T01800145  RH  080%=      5-min Rain = 0
KTAS 161340Z 06010KT 18/14 A3009 RMK A01 T01800144  RH  079%=      5-min Rain = 0
KTAS 161341Z 06008KT 18/14 A3009 RMK A01 T01800143  RH  079%=      5-min Rain = 0
KTAS 161342Z 05007KT 18/14 A3009 RMK A01 T01810143  RH  079%=      5-min Rain = 0
KTAS 161343Z 05006KT 18/14 A3009 RMK A01 T01810144  RH  079%=      5-min Rain = 0
KTAS 161344Z 07007KT 18/14 A3009 RMK A01 T01820144  RH  078%=      5-min Rain = 0
KTAS 161345Z 07009KT 18/14 A3009 RMK A01 T01830144  RH  078%=      5-min Rain = 0
KTAS 161346Z 08009KT 18/14 A3009 RMK A01 T01830144  RH  078%=      5-min Rain = 0
KTAS 161347Z 08011KT 18/14 A3009 RMK A01 T01840144  RH  078%=      5-min Rain = 0
KTAS 161348Z 09009KT 18/14 A3009 RMK A01 T01840144  RH  077%=      5-min Rain = 0
KTAS 161349Z 09010KT 19/14 A3009 RMK A01 T01850143  RH  076%=      5-min Rain = 0
KTAS 161350Z 10009KT 19/14 A3009 RMK A01 T01850141  RH  075%=      5-min Rain = 0
KTAS 161351Z 10007KT 19/14 A301 RMK A01 T01860142  RH  075%=      5-min Rain = 0
KTAS 161352Z 09010KT 19/14 A301 RMK A01 T01870141  RH  074%=      5-min Rain = 0
KTAS 161353Z 08010KT 19/14 A301 RMK A01 T01880140  RH  074%=      5-min Rain = 0
KTAS 161354Z 09008KT 19/14 A301 RMK A01 T01870140  RH  074%=      5-min Rain = 0
KTAS 161355Z 07009KT 19/14 A301 RMK A01 T01870141  RH  074%=      5-min Rain = 0
KTAS 161356Z 08008KT 19/14 A301 RMK A01 T01860141  RH  075%=      5-min Rain = 0
KTAS 161357Z 07006KT 19/14 A301 RMK A01 T01870143  RH  076%=      5-min Rain = 0
KTAS 161358Z 07008KT 19/14 A301 RMK A01 T01880144  RH  076%=      5-min Rain = 0
KTAS 161359Z 08009KT 19/15 A301 RMK A01 T01890146  RH  076%=      5-min Rain = 0
KTAS 161400Z 07009KT 19/15 A301 RMK A01 T01900146  RH  076%=      5-min Rain = 0
KTAS 161401Z 07010KT 19/15 A301 RMK A01 T01890145  RH  075%=      5-min Rain = 0
KTAS 161402Z 07009KT 19/14 A301 RMK A01 T01880144  RH  076%=      5-min Rain = 0
KTAS 161403Z 06008KT 19/15 A301 RMK A01 T01890145  RH  075%=      5-min Rain = 0
KTAS 161404Z 06007KT 19/15 A301 RMK A01 T01900145  RH  075%=      5-min Rain = 0
KTAS 161405Z 07006KT 19/15 A301 RMK A01 T01910145  RH  075%=      5-min Rain = 0
KTAS 161406Z 07008KT 19/14 A301 RMK A01 T01910144  RH  074%=      5-min Rain = 0
KTAS 161407Z 07007KT 19/14 A301 RMK A01 T01900144  RH  074%=      5-min Rain = 0
KTAS 161408Z 07006KT 19/14 A301 RMK A01 T01910144  RH  074%=      5-min Rain = 0
KTAS 161409Z 07008KT 19/14 A301 RMK A01 T01920144  RH  074%=      5-min Rain = 0
KTAS 161410Z 07010KT 19/14 A301 RMK A01 T01920142  RH  073%=      5-min Rain = 0
KTAS 161411Z 07008KT 19/14 A301 RMK A01 T01900140  RH  072%=      5-min Rain = 0
KTAS 161412Z 07007KT 19/14 A301 RMK A01 T01910141  RH  072%=      5-min Rain = 0
KTAS 161413Z 07007KT 19/14 A301 RMK A01 T01930141  RH  072%=      5-min Rain = 0
KTAS 161414Z 07008KT 19/14 A301 RMK A01 T01930141  RH  072%=      5-min Rain = 0
KTAS 161415Z 07008KT 19/14 A301 RMK A01 T01920140  RH  072%=      5-min Rain = 0
KTAS 161416Z 07008KT 19/14 A301 RMK A01 T01930140  RH  072%=      5-min Rain = 0
KTAS 161417Z 09006KT 19/14 A301 RMK A01 T01920138  RH  071%=      5-min Rain = 0
KTAS 161418Z 09006KT 19/14 A301 RMK A01 T01930139  RH  071%=      5-min Rain = 0
KTAS 161419Z 11006KT 19/14 A3011 RMK A01 T01940139  RH  071%=      5-min Rain = 0
KTAS 161420Z 08006KT 19/14 A3011 RMK A01 T01940140  RH  071%=      5-min Rain = 0
KTAS 161421Z 11007KT 20/14 A3011 RMK A01 T01950140  RH  071%=      5-min Rain = 0
KTAS 161422Z 09007KT 20/14 A3011 RMK A01 T01960142  RH  071%=      5-min Rain = 0
KTAS 161423Z 09005KT 20/14 A3011 RMK A01 T01960143  RH  071%=      5-min Rain = 0
KTAS 161424Z 10006KT 20/14 A3011 RMK A01 T01960143  RH  071%=      5-min Rain = 0
KTAS 161425Z 09006KT 20/14 A3011 RMK A01 T01950142  RH  071%=      5-min Rain = 0
KTAS 161426Z 09007KT 19/14 A3011 RMK A01 T01940140  RH  071%=      5-min Rain = 0
KTAS 161427Z 10005KT 20/14 A3011 RMK A01 T01960141  RH  071%=      5-min Rain = 0
KTAS 161428Z 13007KT 20/14 A3011 RMK A01 T01970141  RH  070%=      5-min Rain = 0
KTAS 161429Z 13005KT 20/14 A3011 RMK A01 T01970139  RH  069%=      5-min Rain = 0
KTAS 161430Z 14005KT 20/14 A3011 RMK A01 T01970139  RH  069%=      5-min Rain = 0
KTAS 161431Z 14005KT 20/14 A3011 RMK A01 T01980138  RH  068%=      5-min Rain = 0
KTAS 161432Z 13004KT 20/14 A3011 RMK A01 T01980137  RH  068%=      5-min Rain = 0
KTAS 161433Z 13006KT 20/14 A3011 RMK A01 T01980138  RH  068%=      5-min Rain = 0
KTAS 161434Z 13006KT 20/14 A3011 RMK A01 T01990138  RH  068%=      5-min Rain = 0
KTAS 161435Z 13006KT 20/14 A3011 RMK A01 T01990137  RH  067%=      5-min Rain = 0
KTAS 161436Z 12006KT 20/14 A3011 RMK A01 T01990137  RH  068%=      5-min Rain = 0
KTAS 161437Z 12007KT 20/14 A3011 RMK A01 T01980136  RH  067%=      5-min Rain = 0
KTAS 161438Z 14007KT 20/14 A3011 RMK A01 T01970137  RH  068%=      5-min Rain = 0
KTAS 161439Z 14005KT 20/14 A3011 RMK A01 T01990138  RH  068%=      5-min Rain = 0
KTAS 161440Z 14005KT 20/14 A3011 RMK A01 T02010139  RH  068%=      5-min Rain = 0
KTAS 161441Z 16006G11KT 20/14 A301 RMK A01 T02030138  RH  066%=      5-min Rain = 0
KTAS 161442Z 16008KT 21/14 A301 RMK A01 T02050135  RH  064%=      5-min Rain = 0
KTAS 161443Z 15007KT 21/13 A301 RMK A01 T02080132  RH  062%=      5-min Rain = 0
KTAS 161444Z 16009KT 21/13 A301 RMK A01 T02100133  RH  061%=      5-min Rain = 0
KTAS 161445Z 15010KT 21/13 A301 RMK A01 T02140133  RH  060%=      5-min Rain = 0
KTAS 161446Z 16008KT 21/13 A301 RMK A01 T02140133  RH  060%=      5-min Rain = 0
KTAS 161447Z 15010KT 22/13 A301 RMK A01 T02160131  RH  059%=      5-min Rain = 0
KTAS 161448Z 15010KT 22/13 A301 RMK A01 T02150130  RH  059%=      5-min Rain = 0
KTAS 161449Z 16009KT 21/13 A301 RMK A01 T02140132  RH  059%=      5-min Rain = 0
KTAS 161450Z 16010KT 22/13 A301 RMK A01 T02160133  RH  059%=      5-min Rain = 0
KTAS 161451Z 16012KT 22/13 A301 RMK A01 T02160132  RH  059%=      5-min Rain = 0
KTAS 161452Z 17011KT 21/13 A301 RMK A01 T02140130  RH  059%=      5-min Rain = 0
KTAS 161453Z 16011KT 21/13 A301 RMK A01 T02130132  RH  060%=      5-min Rain = 0
KTAS 161454Z 16011KT 21/13 A301 RMK A01 T02110127  RH  059%=      5-min Rain = 0
KTAS 161455Z 16012KT 21/13 A301 RMK A01 T02110126  RH  058%=      5-min Rain = 0
KTAS 161456Z 16011KT 21/13 A301 RMK A01 T02110128  RH  059%=      5-min Rain = 0
KTAS 161457Z 15011KT 21/13 A301 RMK A01 T02130129  RH  059%=      5-min Rain = 0
KTAS 161458Z 15011KT 21/13 A301 RMK A01 T02140128  RH  058%=      5-min Rain = 0
KTAS 161459Z 15011KT 22/13 A301 RMK A01 T02160129  RH  057%=      5-min Rain = 0
KTAS 161500Z 15012KT 22/13 A301 RMK A01 T02180131  RH  057%=      5-min Rain = 0
KTAS 161501Z 16014KT 22/13 A301 RMK A01 T02200130  RH  057%=      5-min Rain = 0
KTAS 161502Z 16010KT 22/13 A301 RMK A01 T02190131  RH  057%=      5-min Rain = 0
KTAS 161503Z 16013KT 22/13 A301 RMK A01 T02190129  RH  056%=      5-min Rain = 0
KTAS 161504Z 16014KT 22/13 A3009 RMK A01 T02180127  RH  056%=      5-min Rain = 0
KTAS 161505Z 15012KT 22/13 A3009 RMK A01 T02190128  RH  056%=      5-min Rain = 0
KTAS 161506Z 16011KT 22/13 A3009 RMK A01 T02200130  RH  057%=      5-min Rain = 0
KTAS 161507Z 16014KT 22/13 A3009 RMK A01 T02210128  RH  056%=      5-min Rain = 0
KTAS 161508Z 16013KT 22/13 A3009 RMK A01 T02190128  RH  056%=      5-min Rain = 0
KTAS 161509Z 16010KT 22/13 A3009 RMK A01 T02190129  RH  056%=      5-min Rain = 0
KTAS 161510Z 16012KT 22/13 A3009 RMK A01 T02190130  RH  057%=      5-min Rain = 0
KTAS 161511Z 16013KT 22/13 A3009 RMK A01 T02200127  RH  055%=      5-min Rain = 0
KTAS 161512Z 16015KT 22/13 A3009 RMK A01 T02200126  RH  055%=      5-min Rain = 0
KTAS 161513Z 17013KT 22/13 A3009 RMK A01 T02200127  RH  056%=      5-min Rain = 0
KTAS 161514Z 16013KT 22/13 A3009 RMK A01 T02200128  RH  056%=      5-min Rain = 0
KTAS 161515Z 16014KT 22/13 A3009 RMK A01 T02200128  RH  056%=      5-min Rain = 0
KTAS 161516Z 15013KT 22/13 A3009 RMK A01 T02210130  RH  056%=      5-min Rain = 0
KTAS 161517Z 15014KT 22/13 A3009 RMK A01 T02220129  RH  055%=      5-min Rain = 0
KTAS 161518Z 16014KT 22/13 A3009 RMK A01 T02230130  RH  056%=      5-min Rain = 0
KTAS 161519Z 16013KT 22/13 A3009 RMK A01 T02230129  RH  055%=      5-min Rain = 0
KTAS 161520Z 15013KT 22/12 A3009 RMK A01 T02230124  RH  053%=      5-min Rain = 0
KTAS 161521Z 15013KT 22/13 A3009 RMK A01 T02240126  RH  054%=      5-min Rain = 0
KTAS 161522Z 16012KT 23/13 A3009 RMK A01 T02250130  RH  055%=      5-min Rain = 0
KTAS 161523Z 16014KT 23/13 A3009 RMK A01 T02280127  RH  053%=      5-min Rain = 0
KTAS 161524Z 16013KT 23/13 A3009 RMK A01 T02290127  RH  053%=      5-min Rain = 0
KTAS 161525Z 16013KT 23/13 A3009 RMK A01 T02280126  RH  053%=      5-min Rain = 0
KTAS 161526Z 16012KT 23/13 A3009 RMK A01 T02260128  RH  054%=      5-min Rain = 0
KTAS 161527Z 15015KT 23/13 A3009 RMK A01 T02280127  RH  053%=      5-min Rain = 0
KTAS 161528Z 15011KT 23/13 A3009 RMK A01 T02280128  RH  053%=      5-min Rain = 0
KTAS 161529Z 16010KT 23/13 A3009 RMK A01 T02310130  RH  053%=      5-min Rain = 0
KTAS 161530Z 17015KT 23/13 A3009 RMK A01 T02340127  RH  051%=      5-min Rain = 0
KTAS 161531Z 17014G19KT 23/12 A3009 RMK A01 T02320122  RH  050%=      5-min Rain = 0
KTAS 161532Z 17012KT 23/13 A3009 RMK A01 T02290125  RH  052%=      5-min Rain = 0
KTAS 161533Z 17011G16KT 23/13 A3009 RMK A01 T02310127  RH  052%=      5-min Rain = 0
KTAS 161534Z 17012G19KT 23/13 A3009 RMK A01 T02320126  RH  051%=      5-min Rain = 0
KTAS 161535Z 17014G19KT 23/12 A3008 RMK A01 T02310124  RH  051%=      5-min Rain = 0
KTAS 161536Z 16013KT 23/12 A3008 RMK A01 T02310124  RH  051%=      5-min Rain = 0
KTAS 161537Z 15012KT 23/13 A3009 RMK A01 T02310126  RH  051%=      5-min Rain = 0
KTAS 161538Z 16013KT 23/12 A3008 RMK A01 T02330124  RH  050%=      5-min Rain = 0
KTAS 161539Z 16014KT 23/12 A3008 RMK A01 T02310124  RH  051%=      5-min Rain = 0
KTAS 161540Z 16011KT 23/13 A3008 RMK A01 T02300126  RH  052%=      5-min Rain = 0
KTAS 161541Z 17012KT 23/13 A3008 RMK A01 T02330127  RH  051%=      5-min Rain = 0
KTAS 161542Z 16014KT 24/12 A3009 RMK A01 T02350124  RH  050%=      5-min Rain = 0
KTAS 161543Z 15017KT 24/12 A3008 RMK A01 T02350119  RH  048%=      5-min Rain = 0
KTAS 161544Z 16013KT 23/12 A3008 RMK A01 T02330118  RH  048%=      5-min Rain = 0
KTAS 161545Z 17010KT 23/12 A3008 RMK A01 T02340122  RH  049%=      5-min Rain = 0
KTAS 161546Z 17013KT 24/12 A3008 RMK A01 T02370123  RH  049%=      5-min Rain = 0
KTAS 161547Z 18012KT 24/12 A3008 RMK A01 T02380122  RH  048%=      5-min Rain = 0
KTAS 161548Z 17011KT 24/12 A3008 RMK A01 T02360123  RH  049%=      5-min Rain = 0
KTAS 161549Z 16011KT 24/12 A3008 RMK A01 T02350123  RH  050%=      5-min Rain = 0
KTAS 161550Z 15014KT 24/12 A3009 RMK A01 T02360119  RH  048%=      5-min Rain = 0
KTAS 161551Z 16014KT 24/12 A3008 RMK A01 T02360120  RH  048%=      5-min Rain = 0
KTAS 161552Z 15011KT 24/12 A3008 RMK A01 T02370120  RH  048%=      5-min Rain = 0
KTAS 161553Z 16011KT 24/12 A3008 RMK A01 T02380122  RH  048%=      5-min Rain = 0
KTAS 161554Z 15010KT 24/12 A3008 RMK A01 T02400124  RH  048%=      5-min Rain = 0
KTAS 161555Z 14009KT 24/12 A3008 RMK A01 T02430124  RH  048%=      5-min Rain = 0
KTAS 161556Z 15011KT 24/12 A3008 RMK A01 T02430122  RH  047%=      5-min Rain = 0
KTAS 161557Z 15010KT 24/12 A3008 RMK A01 T02390122  RH  048%=      5-min Rain = 0
KTAS 161558Z 15010KT 24/13 A3008 RMK A01 T02400125  RH  049%=      5-min Rain = 0
KTAS 161559Z 16012KT 24/12 A3008 RMK A01 T02440120  RH  046%=      5-min Rain = 0
KTAS 161600Z 16012KT 24/12 A3008 RMK A01 T02440120  RH  046%=      5-min Rain = 0
KTAS 161601Z 15012KT 25/12 A3008 RMK A01 T02450121  RH  046%=      5-min Rain = 0
KTAS 161602Z 15012KT 25/12 A3008 RMK A01 T02450121  RH  046%=      5-min Rain = 0
KTAS 161603Z 15014KT 24/12 A3008 RMK A01 T02430123  RH  047%=      5-min Rain = 0
KTAS 161604Z 16014KT 24/12 A3008 RMK A01 T02420121  RH  047%=      5-min Rain = 0
KTAS 161605Z 16014KT 24/12 A3008 RMK A01 T02410118  RH  046%=      5-min Rain = 0
KTAS 161606Z 16012G17KT 24/12 A3008 RMK A01 T02410119  RH  046%=      5-min Rain = 0
KTAS 161607Z 16014KT 25/12 A3008 RMK A01 T02450120  RH  045%=      5-min Rain = 0
KTAS 161608Z 17015KT 25/12 A3008 RMK A01 T02470117  RH  044%=      5-min Rain = 0
KTAS 161609Z 16011KT 25/12 A3008 RMK A01 T02460119  RH  045%=      5-min Rain = 0
KTAS 161610Z 15012KT 25/12 A3008 RMK A01 T02470119  RH  045%=      5-min Rain = 0
KTAS 161611Z 18012KT 25/12 A3008 RMK A01 T02460119  RH  045%=      5-min Rain = 0
KTAS 161612Z 17010KT 24/12 A3008 RMK A01 T02420118  RH  046%=      5-min Rain = 0
KTAS 161613Z 15014KT 24/12 A3008 RMK A01 T02420118  RH  046%=      5-min Rain = 0
KTAS 161614Z 16012KT 24/12 A3008 RMK A01 T02430117  RH  045%=      5-min Rain = 0
KTAS 161615Z 16011KT 25/12 A3008 RMK A01 T02450116  RH  044%=      5-min Rain = 0
KTAS 161616Z 16009KT 25/12 A3007 RMK A01 T02480119  RH  045%=      5-min Rain = 0
KTAS 161617Z 16013KT 25/12 A3007 RMK A01 T02530119  RH  043%=      5-min Rain = 0
KTAS 161618Z 16012KT 25/12 A3007 RMK A01 T02530119  RH  043%=      5-min Rain = 0
KTAS 161619Z 16011KT 25/12 A3007 RMK A01 T02490118  RH  044%=      5-min Rain = 0
KTAS 161620Z 17013KT 25/12 A3007 RMK A01 T02510115  RH  043%=      5-min Rain = 0
KTAS 161621Z 16014KT 25/12 A3007 RMK A01 T02520115  RH  042%=      5-min Rain = 0
KTAS 161622Z 15014KT 25/12 A3007 RMK A01 T02530115  RH  042%=      5-min Rain = 0
KTAS 161623Z 14011KT 25/11 A3007 RMK A01 T02490113  RH  042%=      5-min Rain = 0
KTAS 161624Z 15012KT 25/12 A3007 RMK A01 T02480115  RH  043%=      5-min Rain = 0
KTAS 161625Z 16010KT 25/12 A3007 RMK A01 T02500117  RH  043%=      5-min Rain = 0
KTAS 161626Z 16013KT 26/12 A3007 RMK A01 T02550117  RH  042%=      5-min Rain = 0
KTAS 161627Z 15010KT 26/12 A3007 RMK A01 T02550116  RH  042%=      5-min Rain = 0
KTAS 161628Z 16011KT 26/12 A3007 RMK A01 T02560118  RH  042%=      5-min Rain = 0
KTAS 161629Z 16011KT 26/12 A3007 RMK A01 T02570117  RH  042%=      5-min Rain = 0
KTAS 161630Z 16013KT 26/12 A3007 RMK A01 T02570116  RH  041%=      5-min Rain = 0
KTAS 161631Z 15012KT 26/11 A3007 RMK A01 T02590113  RH  040%=      5-min Rain = 0
KTAS 161632Z 14011G17KT 26/12 A3007 RMK A01 T02580115  RH  041%=      5-min Rain = 0
KTAS 161633Z 13012KT 26/11 A3007 RMK A01 T02570111  RH  040%=      5-min Rain = 0
KTAS 161634Z 14012KT 26/11 A3007 RMK A01 T02560111  RH  040%=      5-min Rain = 0
KTAS 161635Z 14010KT 26/11 A3007 RMK A01 T02560113  RH  041%=      5-min Rain = 0
KTAS 161636Z 14013KT 26/11 A3007 RMK A01 T02600114  RH  040%=      5-min Rain = 0
KTAS 161637Z 12012KT 26/11 A3007 RMK A01 T02590112  RH  040%=      5-min Rain = 0
KTAS 161638Z 15014KT 26/12 A3007 RMK A01 T02570115  RH  041%=      5-min Rain = 0
KTAS 161639Z 17014KT 26/12 A3007 RMK A01 T02600115  RH  040%=      5-min Rain = 0
KTAS 161640Z 16013KT 26/12 A3007 RMK A01 T02600116  RH  041%=      5-min Rain = 0
KTAS 161641Z 16014KT 26/12 A3007 RMK A01 T02610117  RH  041%=      5-min Rain = 0
KTAS 161642Z 15013KT 26/12 A3007 RMK A01 T02590115  RH  040%=      5-min Rain = 0
KTAS 161643Z 15015KT 26/11 A3007 RMK A01 T02580114  RH  041%=      5-min Rain = 0
KTAS 161644Z 16012KT 26/11 A3007 RMK A01 T02580114  RH  040%=      5-min Rain = 0
KTAS 161645Z 15011KT 26/12 A3007 RMK A01 T02590116  RH  041%=      5-min Rain = 0
KTAS 161646Z 15012KT 26/12 A3007 RMK A01 T02600116  RH  041%=      5-min Rain = 0
KTAS 161647Z 16011KT 26/12 A3007 RMK A01 T02580119  RH  042%=      5-min Rain = 0
KTAS 161648Z 14013KT 26/12 A3007 RMK A01 T02620116  RH  040%=      5-min Rain = 0
KTAS 161649Z 14013KT 27/12 A3007 RMK A01 T02650115  RH  039%=      5-min Rain = 0
KTAS 161650Z 12014KT 26/12 A3007 RMK A01 T02630116  RH  040%=      5-min Rain = 0
KTAS 161651Z 12012KT 26/12 A3007 RMK A01 T02620117  RH  040%=      5-min Rain = 0
KTAS 161652Z 14011KT 26/12 A3007 RMK A01 T02630117  RH  040%=      5-min Rain = 0
KTAS 161653Z 13010KT 26/12 A3007 RMK A01 T02630119  RH  041%=      5-min Rain = 0
KTAS 161654Z 13012KT 26/12 A3007 RMK A01 T02630117  RH  040%=      5-min Rain = 0
KTAS 161655Z 12011KT 26/12 A3007 RMK A01 T02630117  RH  040%=      5-min Rain = 0
KTAS 161656Z 14014KT 27/12 A3007 RMK A01 T02660115  RH  039%=      5-min Rain = 0
KTAS 161657Z 14015KT 26/11 A3007 RMK A01 T02640114  RH  039%=      5-min Rain = 0
KTAS 161658Z 13010KT 27/12 A3007 RMK A01 T02650117  RH  040%=      5-min Rain = 0
KTAS 161659Z 13010KT 27/12 A3007 RMK A01 T02670116  RH  039%=      5-min Rain = 0
KTAS 161700Z 14013KT 27/12 A3007 RMK A01 T02690119  RH  039%=      5-min Rain = 0
KTAS 161701Z 17011KT 27/12 A3007 RMK A01 T02730118  RH  038%=      5-min Rain = 0
KTAS 161702Z 16012KT 27/12 A3006 RMK A01 T02740118  RH  038%=      5-min Rain = 0
KTAS 161703Z 17010KT 27/12 A3006 RMK A01 T02720119  RH  039%=      5-min Rain = 0
KTAS 161704Z 17011KT 27/12 A3006 RMK A01 T02740119  RH  038%=      5-min Rain = 0
KTAS 161705Z 13015KT 28/12 A3006 RMK A01 T02760117  RH  037%=      5-min Rain = 0
KTAS 161706Z 12012KT 27/12 A3006 RMK A01 T02720115  RH  038%=      5-min Rain = 0
KTAS 161707Z 13009G14KT 27/12 A3006 RMK A01 T02700115  RH  038%=      5-min Rain = 0
KTAS 161708Z 14012KT 27/12 A3006 RMK A01 T02740116  RH  037%=      5-min Rain = 0
KTAS 161709Z 16013KT 27/11 A3006 RMK A01 T02730114  RH  037%=      5-min Rain = 0
KTAS 161710Z 14011KT 27/12 A3006 RMK A01 T02710115  RH  038%=      5-min Rain = 0
KTAS 161711Z 13014G19KT 27/11 A3006 RMK A01 T02720113  RH  037%=      5-min Rain = 0
KTAS 161712Z 14012G17KT 27/11 A3006 RMK A01 T02730112  RH  037%=      5-min Rain = 0
KTAS 161713Z 13013KT 28/11 A3006 RMK A01 T02800112  RH  035%=      5-min Rain = 0
KTAS 161714Z 14010KT 28/11 A3006 RMK A01 T02780113  RH  036%=      5-min Rain = 0
KTAS 161715Z 13012G17KT 28/11 A3006 RMK A01 T02770111  RH  036%=      5-min Rain = 0
KTAS 161716Z 11012G17KT 27/11 A3006 RMK A01 T02730111  RH  036%=      5-min Rain = 0
KTAS 161717Z 12012KT 27/11 A3006 RMK A01 T02720113  RH  037%=      5-min Rain = 0
KTAS 161718Z 13010KT 27/11 A3006 RMK A01 T02730114  RH  037%=      5-min Rain = 0
KTAS 161719Z 12012KT 28/11 A3006 RMK A01 T02760114  RH  036%=      5-min Rain = 0
KTAS 161720Z 12013G18KT 28/11 A3006 RMK A01 T02780112  RH  036%=      5-min Rain = 0
KTAS 161721Z 12015KT 27/11 A3006 RMK A01 T02740110  RH  036%=      5-min Rain = 0
KTAS 161722Z 12013KT 27/11 A3006 RMK A01 T02690110  RH  037%=      5-min Rain = 0
KTAS 161723Z 12013KT 27/11 A3006 RMK A01 T02700109  RH  037%=      5-min Rain = 0
KTAS 161724Z 11013KT 27/11 A3006 RMK A01 T02740108  RH  036%=      5-min Rain = 0
KTAS 161725Z 12013KT 28/11 A3006 RMK A01 T02750110  RH  036%=      5-min Rain = 0
KTAS 161726Z 14011KT 28/11 A3006 RMK A01 T02750112  RH  036%=      5-min Rain = 0
KTAS 161727Z 14009KT 27/11 A3006 RMK A01 T02740111  RH  036%=      5-min Rain = 0
KTAS 161728Z 12010KT 28/11 A3006 RMK A01 T02750112  RH  036%=      5-min Rain = 0
KTAS 161729Z 13008G14KT 28/11 A3006 RMK A01 T02750111  RH  036%=      5-min Rain = 0
KTAS 161730Z 13012KT 28/11 A3006 RMK A01 T02750106  RH  035%=      5-min Rain = 0
KTAS 161731Z 13014KT 28/10 A3006 RMK A01 T02750104  RH  034%=      5-min Rain = 0
KTAS 161732Z 13012KT 28/10 A3006 RMK A01 T02770104  RH  034%=      5-min Rain = 0
KTAS 161733Z 12010KT 28/10 A3006 RMK A01 T02760104  RH  034%=      5-min Rain = 0
KTAS 161734Z 13012KT 28/10 A3006 RMK A01 T02780103  RH  034%=      5-min Rain = 0
KTAS 161735Z 11011KT 28/10 A3006 RMK A01 T02840103  RH  032%=      5-min Rain = 0
KTAS 161736Z 14014KT 29/10 A3006 RMK A01 T02870102  RH  032%=      5-min Rain = 0
KTAS 161737Z 14011KT 29/10 A3006 RMK A01 T02860101  RH  032%=      5-min Rain = 0
KTAS 161738Z 13011KT 28/10 A3006 RMK A01 T02810102  RH  033%=      5-min Rain = 0
KTAS 161739Z 13013KT 28/10 A3006 RMK A01 T02830101  RH  032%=      5-min Rain = 0
KTAS 161740Z 15011KT 28/10 A3006 RMK A01 T02840098  RH  031%=      5-min Rain = 0
KTAS 161741Z 14011KT 28/10 A3006 RMK A01 T02840099  RH  031%=      5-min Rain = 0
KTAS 161742Z 13012KT 28/10 A3006 RMK A01 T02830101  RH  032%=      5-min Rain = 0
KTAS 161743Z 13012KT 29/10 A3006 RMK A01 T02850099  RH  031%=      5-min Rain = 0
KTAS 161744Z 13012KT 28/10 A3006 RMK A01 T02840099  RH  032%=      5-min Rain = 0
KTAS 161745Z 14010KT 28/10 A3006 RMK A01 T02800099  RH  032%=      5-min Rain = 0
KTAS 161746Z 12013KT 28/10 A3006 RMK A01 T02810101  RH  033%=      5-min Rain = 0
KTAS 161747Z 10013KT 29/10 A3006 RMK A01 T02850102  RH  032%=      5-min Rain = 0
KTAS 161748Z 11010KT 28/10 A3006 RMK A01 T02840103  RH  032%=      5-min Rain = 0
KTAS 161749Z 12012KT 29/10 A3006 RMK A01 T02870099  RH  031%=      5-min Rain = 0
KTAS 161750Z 12008KT 29/10 A3006 RMK A01 T02860098  RH  031%=      5-min Rain = 0
KTAS 161751Z 13010G15KT 29/10 A3006 RMK A01 T02850099  RH  031%=      5-min Rain = 0
KTAS 161752Z 12015KT 29/10 A3005 RMK A01 T02860097  RH  031%=      5-min Rain = 0
KTAS 161753Z 12015KT 29/10 A3005 RMK A01 T02860096  RH  030%=      5-min Rain = 0
KTAS 161754Z 12014KT 29/10 A3005 RMK A01 T02850097  RH  031%=      5-min Rain = 0
KTAS 161755Z 14012KT 29/10 A3005 RMK A01 T02860097  RH  031%=      5-min Rain = 0
KTAS 161756Z 13007KT 29/10 A3005 RMK A01 T02880101  RH  031%=      5-min Rain = 0
KTAS 161757Z 12011KT 29/10 A3005 RMK A01 T02920101  RH  030%=      5-min Rain = 0
KTAS 161758Z 12012KT 29/10 A3005 RMK A01 T02870098  RH  031%=      5-min Rain = 0
KTAS 161759Z 13013KT 29/10 A3005 RMK A01 T02890098  RH  030%=      5-min Rain = 0
KTAS 161800Z 11013KT 29/10 A3005 RMK A01 T02930097  RH  029%=      5-min Rain = 0
KTAS 161801Z 11011KT 29/10 A3005 RMK A01 T02920095  RH  029%=      5-min Rain = 0
KTAS 161802Z 13012KT 29/10 A3005 RMK A01 T02900097  RH  030%=      5-min Rain = 0
KTAS 161803Z 13013G20KT 29/10 A3005 RMK A01 T02930098  RH  030%=      5-min Rain = 0
KTAS 161804Z 13016G21KT 30/09 A3005 RMK A01 T02970092  RH  028%=      5-min Rain = 0
KTAS 161805Z 13017KT 29/09 A3005 RMK A01 T02930090  RH  028%=      5-min Rain = 0
KTAS 161806Z 13017KT 29/09 A3005 RMK A01 T02890091  RH  029%=      5-min Rain = 0
KTAS 161807Z 14010KT 29/09 A3005 RMK A01 T02880093  RH  030%=      5-min Rain = 0
KTAS 161808Z 12013KT 29/10 A3004 RMK A01 T02880096  RH  030%=      5-min Rain = 0
KTAS 161809Z 14014KT 29/10 A3005 RMK A01 T02930098  RH  030%=      5-min Rain = 0
KTAS 161810Z 13013KT 29/10 A3004 RMK A01 T02900096  RH  030%=      5-min Rain = 0
KTAS 161811Z 13010KT 29/10 A3004 RMK A01 T02860096  RH  031%=      5-min Rain = 0
KTAS 161812Z 14013KT 29/10 A3004 RMK A01 T02880095  RH  030%=      5-min Rain = 0
KTAS 161813Z 15015KT 29/09 A3004 RMK A01 T02910093  RH  029%=      5-min Rain = 0
KTAS 161814Z 13016KT 29/09 A3004 RMK A01 T02940093  RH  029%=      5-min Rain = 0
KTAS 161815Z 12017KT 29/09 A3004 RMK A01 T02940092  RH  028%=      5-min Rain = 0
KTAS 161816Z 12014KT 29/09 A3004 RMK A01 T02910093  RH  029%=      5-min Rain = 0
KTAS 161817Z 15013KT 29/09 A3004 RMK A01 T02930094  RH  029%=      5-min Rain = 0
KTAS 161818Z 13015KT 30/09 A3004 RMK A01 T02950094  RH  029%=      5-min Rain = 0
KTAS 161819Z 12014KT 30/09 A3004 RMK A01 T02960093  RH  028%=      5-min Rain = 0
KTAS 161820Z 15014KT 29/09 A3004 RMK A01 T02930091  RH  028%=      5-min Rain = 0
KTAS 161821Z 15011KT 29/09 A3004 RMK A01 T02920090  RH  028%=      5-min Rain = 0
KTAS 161822Z 13012KT 30/09 A3004 RMK A01 T02950093  RH  028%=      5-min Rain = 0
KTAS 161823Z 14015G22KT 30/09 A3004 RMK A01 T02980094  RH  028%=      5-min Rain = 0
KTAS 161824Z 13015KT 30/09 A3004 RMK A01 T02980092  RH  028%=      5-min Rain = 0
KTAS 161825Z 14012G19KT 30/09 A3004 RMK A01 T02970091  RH  028%=      5-min Rain = 0
KTAS 161826Z 13016KT 30/09 A3004 RMK A01 T02980091  RH  028%=      5-min Rain = 0
KTAS 161827Z 14013KT 30/09 A3004 RMK A01 T02980087  RH  027%=      5-min Rain = 0
KTAS 161828Z 14009KT 30/09 A3003 RMK A01 T02950088  RH  027%=      5-min Rain = 0
KTAS 161829Z 12014G19KT 30/09 A3003 RMK A01 T02980090  RH  027%=      5-min Rain = 0
KTAS 161830Z 13014KT 30/09 A3003 RMK A01 T03000088  RH  027%=      5-min Rain = 0
KTAS 161831Z 12015KT 30/09 A3003 RMK A01 T03000088  RH  027%=      5-min Rain = 0
KTAS 161832Z 12013KT 30/09 A3003 RMK A01 T02950086  RH  027%=      5-min Rain = 0
KTAS 161833Z 12013KT 29/09 A3003 RMK A01 T02910089  RH  028%=      5-min Rain = 0
KTAS 161834Z 16014KT 30/09 A3003 RMK A01 T02990089  RH  027%=      5-min Rain = 0
KTAS 161835Z 14013KT 30/09 A3003 RMK A01 T03000087  RH  027%=      5-min Rain = 0
KTAS 161836Z 14013G23KT 30/09 A3003 RMK A01 T03040091  RH  027%=      5-min Rain = 0
KTAS 161837Z 14017KT 31/09 A3003 RMK A01 T03070086  RH  025%=      5-min Rain = 0
KTAS 161838Z 14014KT 30/09 A3003 RMK A01 T03030086  RH  026%=      5-min Rain = 0
KTAS 161839Z 15013KT 30/09 A3003 RMK A01 T03010085  RH  026%=      5-min Rain = 0
KTAS 161840Z 15015KT 30/09 A3003 RMK A01 T02980086  RH  027%=      5-min Rain = 0
KTAS 161841Z 13015G20KT 30/09 A3003 RMK A01 T03010086  RH  026%=      5-min Rain = 0
KTAS 161842Z 15013KT 30/08 A3003 RMK A01 T03020082  RH  025%=      5-min Rain = 0
KTAS 161843Z 14014G20KT 30/08 A3003 RMK A01 T03000083  RH  026%=      5-min Rain = 0
KTAS 161844Z 16014KT 30/08 A3003 RMK A01 T03010083  RH  026%=      5-min Rain = 0
KTAS 161845Z 16009G14KT 30/09 A3003 RMK A01 T03020085  RH  026%=      5-min Rain = 0
KTAS 161846Z 14017G23KT 30/08 A3003 RMK A01 T03040083  RH  025%=      5-min Rain = 0
KTAS 161847Z 14015G21KT 30/08 A3003 RMK A01 T03020081  RH  025%=      5-min Rain = 0
KTAS 161848Z 14014KT 30/08 A3003 RMK A01 T03010080  RH  025%=      5-min Rain = 0
KTAS 161849Z 13016KT 30/09 A3002 RMK A01 T03000085  RH  026%=      5-min Rain = 0
KTAS 161850Z 12015KT 30/09 A3002 RMK A01 T03020086  RH  026%=      5-min Rain = 0
KTAS 161851Z 12017G22KT 31/09 A3002 RMK A01 T03050085  RH  025%=      5-min Rain = 0
KTAS 161852Z 13015G21KT 31/08 A3002 RMK A01 T03050084  RH  025%=      5-min Rain = 0
KTAS 161853Z 12015KT 31/08 A3002 RMK A01 T03070084  RH  025%=      5-min Rain = 0
KTAS 161854Z 12015KT 31/08 A3002 RMK A01 T03060081  RH  025%=      5-min Rain = 0
KTAS 161855Z 12012G19KT 30/08 A3002 RMK A01 T03010082  RH  026%=      5-min Rain = 0
KTAS 161856Z 15017KT 30/08 A3002 RMK A01 T03010081  RH  025%=      5-min Rain = 0
KTAS 161857Z 15014KT 30/08 A3002 RMK A01 T03040082  RH  025%=      5-min Rain = 0
KTAS 161858Z 13014KT 31/08 A3002 RMK A01 T03060081  RH  025%=      5-min Rain = 0
KTAS 161859Z 13013G18KT 31/08 A3002 RMK A01 T03050082  RH  025%=      5-min Rain = 0
KTAS 161900Z 12014KT 30/08 A3002 RMK A01 T03040081  RH  025%=      5-min Rain = 0
KTAS 161901Z 13014KT 31/08 A3002 RMK A01 T03050081  RH  025%=      5-min Rain = 0
KTAS 161902Z 14013KT 31/08 A3002 RMK A01 T03060083  RH  025%=      5-min Rain = 0
KTAS 161903Z 14011KT 31/08 A3002 RMK A01 T03060083  RH  025%=      5-min Rain = 0
KTAS 161904Z 12015G21KT 31/08 A3002 RMK A01 T03060084  RH  025%=      5-min Rain = 0
KTAS 161905Z 11017KT 31/08 A3002 RMK A01 T03090084  RH  025%=      5-min Rain = 0
KTAS 161906Z 12014KT 31/08 A3002 RMK A01 T03080084  RH  025%=      5-min Rain = 0
KTAS 161907Z 14013KT 31/08 A3002 RMK A01 T03060081  RH  025%=      5-min Rain = 0
KTAS 161908Z 13013G19KT 30/08 A3002 RMK A01 T03020083  RH  025%=      5-min Rain = 0
KTAS 161909Z 15013KT 31/08 A3002 RMK A01 T03070084  RH  025%=      5-min Rain = 0
KTAS 161910Z 15014KT 31/08 A3002 RMK A01 T03110079  RH  024%=      5-min Rain = 0
KTAS 161911Z 14011KT 31/08 A3001 RMK A01 T03080082  RH  024%=      5-min Rain = 0
KTAS 161912Z 12011KT 31/08 A3001 RMK A01 T03070081  RH  024%=      5-min Rain = 0
KTAS 161913Z 12007KT 31/08 A3001 RMK A01 T03060082  RH  025%=      5-min Rain = 0
KTAS 161914Z 13011KT 31/08 A3001 RMK A01 T03110084  RH  024%=      5-min Rain = 0
KTAS 161915Z 13016KT 32/08 A3001 RMK A01 T03170082  RH  023%=      5-min Rain = 0
KTAS 161916Z 13015KT 32/08 A3001 RMK A01 T03150079  RH  023%=      5-min Rain = 0
KTAS 161917Z 13011G17KT 31/08 A3001 RMK A01 T03100077  RH  023%=      5-min Rain = 0
KTAS 161918Z 13009G14KT 31/08 A3001 RMK A01 T03100080  RH  024%=      5-min Rain = 0
KTAS 161919Z 13015KT 31/08 A3001 RMK A01 T03130079  RH  023%=      5-min Rain = 0
KTAS 161920Z 14016KT 31/08 A3001 RMK A01 T03130082  RH  024%=      5-min Rain = 0
KTAS 161921Z 14017G22KT 31/08 A3001 RMK A01 T03110083  RH  024%=      5-min Rain = 0
KTAS 161922Z 15014KT 31/08 A3001 RMK A01 T03090083  RH  025%=      5-min Rain = 0
KTAS 161923Z 14014G22KT 31/08 A3001 RMK A01 T03060084  RH  025%=      5-min Rain = 0
KTAS 161924Z 15017G22KT 31/08 A3001 RMK A01 T03070083  RH  025%=      5-min Rain = 0
KTAS 161925Z 14012KT 31/08 A3001 RMK A01 T03080083  RH  025%=      5-min Rain = 0
KTAS 161926Z 14015KT 31/08 A3001 RMK A01 T03090083  RH  024%=      5-min Rain = 0
KTAS 161927Z 14008KT 31/09 A3001 RMK A01 T03120085  RH  024%=      5-min Rain = 0
KTAS 161928Z 13015KT 32/09 A3001 RMK A01 T03160086  RH  024%=      5-min Rain = 0
KTAS 161929Z 15015KT 31/09 A3001 RMK A01 T03140086  RH  024%=      5-min Rain = 0
KTAS 161930Z 16014KT 31/09 A3001 RMK A01 T03140087  RH  025%=      5-min Rain = 0
KTAS 161931Z 15010KT 31/09 A3001 RMK A01 T03140089  RH  025%=      5-min Rain = 0
KTAS 161932Z 17008KT 32/09 A3001 RMK A01 T03150087  RH  024%=      5-min Rain = 0
KTAS 161933Z 15013KT 31/09 A3001 RMK A01 T03130090  RH  025%=      5-min Rain = 0
KTAS 161934Z 15012KT 31/09 A3001 RMK A01 T03140090  RH  025%=      5-min Rain = 0
KTAS 161935Z 15013KT 31/09 A3001 RMK A01 T03140091  RH  025%=      5-min Rain = 0
KTAS 161936Z 14014KT 32/09 A3001 RMK A01 T03180089  RH  024%=      5-min Rain = 0
KTAS 161937Z 13011KT 32/09 A3001 RMK A01 T03180085  RH  024%=      5-min Rain = 0
KTAS 161938Z 13011G18KT 31/09 A30 RMK A01 T03130086  RH  024%=      5-min Rain = 0
KTAS 161939Z 13010KT 31/09 A30 RMK A01 T03080087  RH  025%=      5-min Rain = 0
KTAS 161940Z 12011G18KT 31/09 A30 RMK A01 T03070091  RH  026%=      5-min Rain = 0
KTAS 161941Z 13015KT 32/09 A30 RMK A01 T03150090  RH  025%=      5-min Rain = 0
KTAS 161942Z 13011G16KT 32/09 A30 RMK A01 T03160092  RH  025%=      5-min Rain = 0
KTAS 161943Z 14015G21KT 32/09 A30 RMK A01 T03170091  RH  025%=      5-min Rain = 0
KTAS 161944Z 13016KT 32/09 A30 RMK A01 T03160089  RH  025%=      5-min Rain = 0
KTAS 161945Z 12013G18KT 31/09 A30 RMK A01 T03100089  RH  025%=      5-min Rain = 0
KTAS 161946Z 12018KT 31/09 A30 RMK A01 T03080091  RH  026%=      5-min Rain = 0
KTAS 161947Z 12011KT 31/09 A30 RMK A01 T03100091  RH  026%=      5-min Rain = 0
KTAS 161948Z 14008KT 31/09 A30 RMK A01 T03100091  RH  026%=      5-min Rain = 0
KTAS 161949Z 12011KT 31/09 A30 RMK A01 T03110092  RH  026%=      5-min Rain = 0
KTAS 161950Z 15013KT 32/09 A30 RMK A01 T03150094  RH  025%=      5-min Rain = 0
KTAS 161951Z 16014KT 32/09 A30 RMK A01 T03150094  RH  025%=      5-min Rain = 0
KTAS 161952Z 15014KT 31/09 A30 RMK A01 T03120094  RH  026%=      5-min Rain = 0
KTAS 161953Z 17012KT 31/10 A30 RMK A01 T03120095  RH  026%=      5-min Rain = 0
KTAS 161954Z 16009KT 31/10 A30 RMK A01 T03110096  RH  026%=      5-min Rain = 0
KTAS 161955Z 15012G20KT 31/10 A30 RMK A01 T03130097  RH  026%=      5-min Rain = 0
KTAS 161956Z 14016KT 32/10 A30 RMK A01 T03180095  RH  025%=      5-min Rain = 0
KTAS 161957Z 14013KT 31/09 A30 RMK A01 T03140094  RH  026%=      5-min Rain = 0
KTAS 161958Z 15013KT 31/09 A30 RMK A01 T03120094  RH  026%=      5-min Rain = 0
KTAS 161959Z 15012KT 31/09 A30 RMK A01 T03120094  RH  026%=      5-min Rain = 0
KTAS 162000Z 15009KT 31/10 A30 RMK A01 T03080095  RH  027%=      5-min Rain = 0
KTAS 162001Z 14008KT 31/10 A30 RMK A01 T03080096  RH  027%=      5-min Rain = 0
KTAS 162002Z 12013G19KT 31/10 A30 RMK A01 T03120097  RH  026%=      5-min Rain = 0
KTAS 162003Z 13012G21KT 32/10 A2999 RMK A01 T03150096  RH  026%=      5-min Rain = 0
KTAS 162004Z 15016KT 32/10 A30 RMK A01 T03170097  RH  026%=      5-min Rain = 0
KTAS 162005Z 13014KT 32/10 A30 RMK A01 T03180097  RH  026%=      5-min Rain = 0
KTAS 162006Z 13012KT 32/10 A30 RMK A01 T03170099  RH  026%=      5-min Rain = 0
KTAS 162007Z 15009KT 31/10 A2999 RMK A01 T03140100  RH  027%=      5-min Rain = 0
KTAS 162008Z 13013KT 32/10 A2999 RMK A01 T03160100  RH  026%=      5-min Rain = 0
KTAS 162009Z 13012KT 32/10 A2999 RMK A01 T03150099  RH  026%=      5-min Rain = 0
KTAS 162010Z 14008KT 32/10 A2999 RMK A01 T03150101  RH  027%=      5-min Rain = 0
KTAS 162011Z 15012G17KT 32/10 A2999 RMK A01 T03210100  RH  026%=      5-min Rain = 0
KTAS 162012Z 12009KT 32/10 A2999 RMK A01 T03180098  RH  026%=      5-min Rain = 0
KTAS 162013Z 12009G14KT 32/10 A2999 RMK A01 T03150101  RH  027%=      5-min Rain = 0
KTAS 162014Z 13011KT 32/10 A2999 RMK A01 T03180100  RH  026%=      5-min Rain = 0
KTAS 162015Z 13012G17KT 32/10 A2999 RMK A01 T03180100  RH  026%=      5-min Rain = 0
KTAS 162016Z 14013KT 32/10 A2999 RMK A01 T03160100  RH  027%=      5-min Rain = 0
KTAS 162017Z 15014KT 31/10 A2999 RMK A01 T03140102  RH  027%=      5-min Rain = 0
KTAS 162018Z 16012KT 31/10 A2999 RMK A01 T03130104  RH  028%=      5-min Rain = 0
KTAS 162019Z 14009KT 31/11 A2999 RMK A01 T03140105  RH  028%=      5-min Rain = 0
KTAS 162020Z 14008KT 32/11 A2999 RMK A01 T03180105  RH  027%=      5-min Rain = 0
KTAS 162021Z 14012KT 32/10 A2999 RMK A01 T03190104  RH  027%=      5-min Rain = 0
KTAS 162022Z 15013KT 32/11 A2999 RMK A01 T03200107  RH  027%=      5-min Rain = 0
KTAS 162023Z 15012KT 32/11 A2999 RMK A01 T03210109  RH  027%=      5-min Rain = 0
KTAS 162024Z 15009KT 32/11 A2999 RMK A01 T03210108  RH  027%=      5-min Rain = 0
KTAS 162025Z 15007KT 32/11 A2998 RMK A01 T03200107  RH  027%=      5-min Rain = 0
KTAS 162026Z 16016G22KT 32/11 A2999 RMK A01 T03190112  RH  028%=      5-min Rain = 0
KTAS 162027Z 15018KT 32/11 A2999 RMK A01 T03220111  RH  027%=      5-min Rain = 0
KTAS 162028Z 14016KT 32/11 A2999 RMK A01 T03230111  RH  027%=      5-min Rain = 0
KTAS 162029Z 16014KT 32/11 A2999 RMK A01 T03210111  RH  028%=      5-min Rain = 0
KTAS 162030Z 15012KT 32/11 A2999 RMK A01 T03180111  RH  028%=      5-min Rain = 0
KTAS 162031Z 13014KT 32/11 A2998 RMK A01 T03180110  RH  028%=      5-min Rain = 0
KTAS 162032Z 13011KT 31/11 A2998 RMK A01 T03130110  RH  029%=      5-min Rain = 0
KTAS 162033Z 14013G19KT 31/11 A2998 RMK A01 T03120111  RH  029%=      5-min Rain = 0
KTAS 162034Z 16016G21KT 32/11 A2998 RMK A01 T03150113  RH  029%=      5-min Rain = 0
KTAS 162035Z 15015G21KT 32/11 A2998 RMK A01 T03180112  RH  028%=      5-min Rain = 0
KTAS 162036Z 15011KT 32/11 A2998 RMK A01 T03180114  RH  029%=      5-min Rain = 0
KTAS 162037Z 15016KT 32/11 A2998 RMK A01 T03210113  RH  028%=      5-min Rain = 0
KTAS 162038Z 16013KT 32/11 A2998 RMK A01 T03180112  RH  028%=      5-min Rain = 0
KTAS 162039Z 14012G17KT 32/11 A2998 RMK A01 T03170114  RH  029%=      5-min Rain = 0
KTAS 162040Z 14012KT 32/11 A2998 RMK A01 T03180112  RH  028%=      5-min Rain = 0
KTAS 162041Z 14010KT 32/11 A2998 RMK A01 T03170113  RH  029%=      5-min Rain = 0
KTAS 162042Z 15014KT 32/11 A2998 RMK A01 T03200113  RH  028%=      5-min Rain = 0
KTAS 162043Z 17010G15KT 32/11 A2998 RMK A01 T03210110  RH  027%=      5-min Rain = 0
KTAS 162044Z 15014KT 32/11 A2998 RMK A01 T03210113  RH  028%=      5-min Rain = 0
KTAS 162045Z 14014KT 32/11 A2998 RMK A01 T03190113  RH  028%=      5-min Rain = 0
KTAS 162046Z 14014G20KT 32/12 A2998 RMK A01 T03190115  RH  029%=      5-min Rain = 0
KTAS 162047Z 15015KT 32/11 A2998 RMK A01 T03210113  RH  028%=      5-min Rain = 0
KTAS 162048Z 13010KT 32/12 A2998 RMK A01 T03210115  RH  028%=      5-min Rain = 0
KTAS 162049Z 12008KT 32/12 A2998 RMK A01 T03240116  RH  028%=      5-min Rain = 0
KTAS 162050Z 13011KT 32/12 A2998 RMK A01 T03240116  RH  028%=      5-min Rain = 0
KTAS 162051Z 16010KT 33/11 A2998 RMK A01 T03250111  RH  027%=      5-min Rain = 0
KTAS 162052Z 15008KT 33/11 A2998 RMK A01 T03250109  RH  027%=      5-min Rain = 0
KTAS 162053Z 14005KT 32/11 A2998 RMK A01 T03210108  RH  027%=      5-min Rain = 0
KTAS 162054Z 15011KT 32/11 A2998 RMK A01 T03210111  RH  028%=      5-min Rain = 0
KTAS 162055Z 17010KT 32/11 A2998 RMK A01 T03190113  RH  028%=      5-min Rain = 0
KTAS 162056Z 17011G18KT 32/11 A2998 RMK A01 T03180112  RH  028%=      5-min Rain = 0
KTAS 162057Z 17015KT 32/10 A2998 RMK A01 T03210101  RH  026%=      5-min Rain = 0
KTAS 162058Z 16011KT 32/10 A2998 RMK A01 T03210099  RH  025%=      5-min Rain = 0
KTAS 162059Z 16017KT 32/10 A2998 RMK A01 T03210099  RH  025%=      5-min Rain = 0
KTAS 162100Z 16011KT 32/10 A2998 RMK A01 T03210096  RH  025%=      5-min Rain = 0
KTAS 162101Z 16011G16KT 32/10 A2998 RMK A01 T03190097  RH  025%=      5-min Rain = 0
KTAS 162102Z 17014KT 32/10 A2998 RMK A01 T03210098  RH  025%=      5-min Rain = 0
KTAS 162103Z 17011KT 32/10 A2998 RMK A01 T03210096  RH  025%=      5-min Rain = 0
KTAS 162104Z 16007KT 32/10 A2998 RMK A01 T03210097  RH  025%=      5-min Rain = 0
KTAS 162105Z 17010KT 32/10 A2998 RMK A01 T03240099  RH  025%=      5-min Rain = 0
KTAS 162106Z 19009KT 33/10 A2998 RMK A01 T03260099  RH  025%=      5-min Rain = 0
KTAS 162107Z 19007KT 32/10 A2997 RMK A01 T03240098  RH  025%=      5-min Rain = 0
KTAS 162108Z 17014KT 32/10 A2997 RMK A01 T03220096  RH  025%=      5-min Rain = 0
KTAS 162109Z 18012KT 32/09 A2997 RMK A01 T03240094  RH  024%=      5-min Rain = 0
KTAS 162110Z 18007KT 32/10 A2997 RMK A01 T03210095  RH  025%=      5-min Rain = 0
KTAS 162111Z 18008KT 32/10 A2997 RMK A01 T03230096  RH  025%=      5-min Rain = 0
KTAS 162112Z 21007KT 32/10 A2997 RMK A01 T03230096  RH  025%=      5-min Rain = 0
KTAS 162113Z 20006KT 32/10 A2997 RMK A01 T03210097  RH  025%=      5-min Rain = 0
KTAS 162114Z 18005KT 32/10 A2997 RMK A01 T03200096  RH  025%=      5-min Rain = 0
KTAS 162115Z 20002KT 32/10 A2997 RMK A01 T03180098  RH  026%=      5-min Rain = 0
KTAS 162116Z 17004KT 32/10 A2997 RMK A01 T03180100  RH  026%=      5-min Rain = 0
KTAS 162117Z 17009G14KT 32/10 A2997 RMK A01 T03220101  RH  026%=      5-min Rain = 0
KTAS 162118Z 18008G14KT 33/10 A2997 RMK A01 T03250099  RH  025%=      5-min Rain = 0
KTAS 162119Z 15008KT 33/10 A2997 RMK A01 T03280101  RH  025%=      5-min Rain = 0
KTAS 162120Z 17010KT 33/10 A2997 RMK A01 T03310098  RH  024%=      5-min Rain = 0
KTAS 162121Z 18009KT 33/10 A2997 RMK A01 T03280095  RH  024%=      5-min Rain = 0
KTAS 162122Z 19008KT 33/09 A2996 RMK A01 T03270091  RH  023%=      5-min Rain = 0
KTAS 162123Z 20004KT 32/09 A2996 RMK A01 T03230092  RH  024%=      5-min Rain = 0
KTAS 162124Z 18005KT 32/09 A2996 RMK A01 T03220092  RH  024%=      5-min Rain = 0
KTAS 162125Z 15008KT 32/10 A2996 RMK A01 T03240096  RH  025%=      5-min Rain = 0
KTAS 162126Z 16010G15KT 33/10 A2996 RMK A01 T03270100  RH  025%=      5-min Rain = 0
KTAS 162127Z 17013KT 33/10 A2996 RMK A01 T03310101  RH  024%=      5-min Rain = 0
KTAS 162128Z 17008KT 33/10 A2996 RMK A01 T03300101  RH  024%=      5-min Rain = 0
KTAS 162129Z 15007KT 33/10 A2996 RMK A01 T03300101  RH  024%=      5-min Rain = 0
KTAS 162130Z 14012KT 33/10 A2996 RMK A01 T03290101  RH  025%=      5-min Rain = 0
KTAS 162131Z 14012KT 33/10 A2996 RMK A01 T03280099  RH  024%=      5-min Rain = 0
KTAS 162132Z 14007KT 32/10 A2996 RMK A01 T03240099  RH  025%=      5-min Rain = 0
KTAS 162133Z 14009KT 32/10 A2996 RMK A01 T03240099  RH  025%=      5-min Rain = 0
KTAS 162134Z 15005KT 32/10 A2996 RMK A01 T03220099  RH  025%=      5-min Rain = 0
KTAS 162135Z 16001KT 32/10 A2996 RMK A01 T03210098  RH  025%=      5-min Rain = 0
KTAS 162136Z 14003KT 32/10 A2995 RMK A01 T03200099  RH  026%=      5-min Rain = 0
KTAS 162137Z 15005KT 32/10 A2995 RMK A01 T03210100  RH  026%=      5-min Rain = 0
KTAS 162138Z 12007KT 33/10 A2995 RMK A01 T03250099  RH  025%=      5-min Rain = 0
KTAS 162139Z 15009KT 33/10 A2995 RMK A01 T03250096  RH  024%=      5-min Rain = 0
KTAS 162140Z 14007KT 33/10 A2995 RMK A01 T03250097  RH  025%=      5-min Rain = 0
KTAS 162141Z 13008KT 33/10 A2995 RMK A01 T03260098  RH  025%=      5-min Rain = 0
KTAS 162142Z 12008KT 33/10 A2995 RMK A01 T03290098  RH  024%=      5-min Rain = 0
KTAS 162143Z 14008KT 33/10 A2995 RMK A01 T03310097  RH  024%=      5-min Rain = 0
KTAS 162144Z 14007KT 33/10 A2995 RMK A01 T03310098  RH  024%=      5-min Rain = 0
KTAS 162145Z 12009KT 33/10 A2995 RMK A01 T03300095  RH  024%=      5-min Rain = 0
KTAS 162146Z 13009G15KT 33/10 A2995 RMK A01 T03250096  RH  024%=      5-min Rain = 0
KTAS 162147Z 13009KT 33/10 A2995 RMK A01 T03250095  RH  024%=      5-min Rain = 0
KTAS 162148Z 16012KT 33/10 A2995 RMK A01 T03260095  RH  024%=      5-min Rain = 0
KTAS 162149Z 16010KT 33/09 A2995 RMK A01 T03290093  RH  023%=      5-min Rain = 0
KTAS 162150Z 19008KT 33/10 A2995 RMK A01 T03310095  RH  023%=      5-min Rain = 0
KTAS 162151Z 19004KT 33/09 A2995 RMK A01 T03300093  RH  023%=      5-min Rain = 0
KTAS 162152Z 16003KT 33/09 A2995 RMK A01 T03270093  RH  024%=      5-min Rain = 0
KTAS 162153Z 15003KT 32/09 A2995 RMK A01 T03240093  RH  024%=      5-min Rain = 0
KTAS 162154Z 14005KT 32/09 A2995 RMK A01 T03220093  RH  024%=      5-min Rain = 0
KTAS 162155Z 12007KT 32/10 A2995 RMK A01 T03220095  RH  025%=      5-min Rain = 0
KTAS 162156Z 15009KT 33/09 A2995 RMK A01 T03250094  RH  024%=      5-min Rain = 0
KTAS 162157Z 13009G14KT 33/09 A2995 RMK A01 T03250094  RH  024%=      5-min Rain = 0
KTAS 162158Z 14009KT 33/10 A2995 RMK A01 T03250095  RH  024%=      5-min Rain = 0
KTAS 162159Z 14009KT 33/10 A2995 RMK A01 T03260096  RH  024%=      5-min Rain = 0
KTAS 162200Z 12012KT 33/10 A2995 RMK A01 T03290096  RH  024%=      5-min Rain = 0
KTAS 162201Z 11009KT 33/10 A2995 RMK A01 T03260096  RH  024%=      5-min Rain = 0
KTAS 162202Z 10007KT 33/10 A2995 RMK A01 T03260097  RH  024%=      5-min Rain = 0
KTAS 162203Z 11004KT 33/10 A2995 RMK A01 T03260097  RH  024%=      5-min Rain = 0
KTAS 162204Z 13004KT 33/10 A2994 RMK A01 T03280098  RH  024%=      5-min Rain = 0
KTAS 162205Z 14009KT 33/10 A2994 RMK A01 T03310097  RH  024%=      5-min Rain = 0
KTAS 162206Z 14013KT 33/10 A2994 RMK A01 T03330096  RH  023%=      5-min Rain = 0
KTAS 162207Z 13010KT 33/10 A2994 RMK A01 T03340097  RH  023%=      5-min Rain = 0
KTAS 162208Z 13011KT 34/10 A2994 RMK A01 T03350096  RH  023%=      5-min Rain = 0
KTAS 162209Z 13012KT 33/10 A2994 RMK A01 T03330096  RH  023%=      5-min Rain = 0
KTAS 162210Z 15010G15KT 33/10 A2994 RMK A01 T03310097  RH  024%=      5-min Rain = 0
KTAS 162211Z 16012KT 33/10 A2994 RMK A01 T03330096  RH  023%=      5-min Rain = 0
KTAS 162212Z 16009KT 34/10 A2994 RMK A01 T03360096  RH  023%=      5-min Rain = 0
KTAS 162213Z 13008KT 33/09 A2994 RMK A01 T03340094  RH  023%=      5-min Rain = 0
KTAS 162214Z 13008KT 33/10 A2994 RMK A01 T03320096  RH  023%=      5-min Rain = 0
KTAS 162215Z 13006KT 33/10 A2994 RMK A01 T03320095  RH  023%=      5-min Rain = 0
KTAS 162216Z 13009KT 33/10 A2994 RMK A01 T03330095  RH  023%=      5-min Rain = 0
KTAS 162217Z 11007KT 33/09 A2994 RMK A01 T03330094  RH  023%=      5-min Rain = 0
KTAS 162218Z 14010KT 33/09 A2994 RMK A01 T03340094  RH  023%=      5-min Rain = 0
KTAS 162219Z 13007KT 33/09 A2994 RMK A01 T03310092  RH  023%=      5-min Rain = 0
KTAS 162220Z 13006KT 33/09 A2994 RMK A01 T03280093  RH  023%=      5-min Rain = 0
KTAS 162221Z 14007KT 33/09 A2994 RMK A01 T03280093  RH  024%=      5-min Rain = 0
KTAS 162222Z 14005KT 33/09 A2994 RMK A01 T03270094  RH  024%=      5-min Rain = 0
KTAS 162223Z 12006KT 33/10 A2994 RMK A01 T03280096  RH  024%=      5-min Rain = 0
KTAS 162224Z 14012KT 33/10 A2994 RMK A01 T03290099  RH  024%=      5-min Rain = 0
KTAS 162225Z 14010KT 33/10 A2994 RMK A01 T03310100  RH  024%=      5-min Rain = 0
KTAS 162226Z 13008KT 33/10 A2994 RMK A01 T03300098  RH  024%=      5-min Rain = 0
KTAS 162227Z 12007KT 33/10 A2994 RMK A01 T03270100  RH  025%=      5-min Rain = 0
KTAS 162228Z 13010KT 33/10 A2994 RMK A01 T03310100  RH  024%=      5-min Rain = 0
KTAS 162229Z 13007KT 33/10 A2994 RMK A01 T03290099  RH  024%=      5-min Rain = 0
KTAS 162230Z 16011KT 33/10 A2994 RMK A01 T03270101  RH  025%=      5-min Rain = 0
KTAS 162231Z 17012KT 33/10 A2993 RMK A01 T03300100  RH  024%=      5-min Rain = 0
KTAS 162232Z 16010KT 33/10 A2993 RMK A01 T03290099  RH  024%=      5-min Rain = 0
KTAS 162233Z 15008KT 33/10 A2993 RMK A01 T03260101  RH  025%=      5-min Rain = 0
KTAS 162234Z 13010KT 33/10 A2993 RMK A01 T03290101  RH  025%=      5-min Rain = 0
KTAS 162235Z 14008KT 33/10 A2993 RMK A01 T03300100  RH  024%=      5-min Rain = 0
KTAS 162236Z 14006KT 33/10 A2993 RMK A01 T03300100  RH  024%=      5-min Rain = 0
KTAS 162237Z 14008KT 33/10 A2993 RMK A01 T03280100  RH  025%=      5-min Rain = 0
KTAS 162238Z 14009KT 33/10 A2993 RMK A01 T03280101  RH  025%=      5-min Rain = 0
KTAS 162239Z 13007KT 33/10 A2993 RMK A01 T03290101  RH  025%=      5-min Rain = 0
KTAS 162240Z 14006KT 33/10 A2993 RMK A01 T03270100  RH  025%=      5-min Rain = 0
KTAS 162241Z 15008KT 33/10 A2993 RMK A01 T03260101  RH  025%=      5-min Rain = 0
KTAS 162242Z 16007KT 33/10 A2993 RMK A01 T03280100  RH  025%=      5-min Rain = 0
KTAS 162243Z 16009KT 33/10 A2993 RMK A01 T03300101  RH  025%=      5-min Rain = 0
KTAS 162244Z 16006KT 33/10 A2993 RMK A01 T03330098  RH  024%=      5-min Rain = 0
KTAS 162245Z 16004KT 33/10 A2993 RMK A01 T03310098  RH  024%=      5-min Rain = 0
KTAS 162246Z 16004KT 33/10 A2993 RMK A01 T03290099  RH  024%=      5-min Rain = 0
KTAS 162247Z 15005KT 33/10 A2993 RMK A01 T03290100  RH  025%=      5-min Rain = 0
KTAS 162248Z 14007KT 33/10 A2993 RMK A01 T03290100  RH  025%=      5-min Rain = 0
KTAS 162249Z 11006KT 33/10 A2993 RMK A01 T03300103  RH  025%=      5-min Rain = 0
KTAS 162250Z 10005KT 34/10 A2993 RMK A01 T03350102  RH  024%=      5-min Rain = 0
KTAS 162251Z 14010G15KT 34/10 A2993 RMK A01 T03360103  RH  024%=      5-min Rain = 0
KTAS 162252Z 14011KT 34/10 A2993 RMK A01 T03350099  RH  024%=      5-min Rain = 0
KTAS 162253Z 16011KT 33/10 A2993 RMK A01 T03330099  RH  024%=      5-min Rain = 0
KTAS 162254Z 16009KT 33/10 A2993 RMK A01 T03320098  RH  024%=      5-min Rain = 0
KTAS 162255Z 16007KT 33/10 A2993 RMK A01 T03300098  RH  024%=      5-min Rain = 0
KTAS 162256Z 15004KT 33/10 A2992 RMK A01 T03310100  RH  024%=      5-min Rain = 0
KTAS 162257Z 16006KT 33/10 A2992 RMK A01 T03330100  RH  024%=      5-min Rain = 0
KTAS 162258Z 17010KT 34/10 A2992 RMK A01 T03360099  RH  023%=      5-min Rain = 0
KTAS 162259Z 15008KT 34/10 A2993 RMK A01 T03350097  RH  023%=      5-min Rain = 0
KTAS 162300Z 15004KT 33/10 A2992 RMK A01 T03340096  RH  023%=      5-min Rain = 0
KTAS 162301Z 16004KT 33/10 A2992 RMK A01 T03330097  RH  023%=      5-min Rain = 0
KTAS 162302Z 14004KT 33/10 A2992 RMK A01 T03330096  RH  023%=      5-min Rain = 0
KTAS 162303Z 12006KT 33/10 A2992 RMK A01 T03340099  RH  024%=      5-min Rain = 0
KTAS 162304Z 10005KT 33/10 A2992 RMK A01 T03330102  RH  024%=      5-min Rain = 0
KTAS 162305Z 09006KT 33/10 A2992 RMK A01 T03340103  RH  024%=      5-min Rain = 0
KTAS 162306Z 11010KT 33/10 A2992 RMK A01 T03340101  RH  024%=      5-min Rain = 0
KTAS 162307Z 11009KT 33/10 A2992 RMK A01 T03330100  RH  024%=      5-min Rain = 0
KTAS 162308Z 11009KT 33/10 A2992 RMK A01 T03320100  RH  024%=      5-min Rain = 0
KTAS 162309Z 13011KT 33/10 A2992 RMK A01 T03270099  RH  025%=      5-min Rain = 0
KTAS 162310Z 14008KT 32/10 A2992 RMK A01 T03230098  RH  025%=      5-min Rain = 0
KTAS 162311Z 12008KT 32/10 A2992 RMK A01 T03230099  RH  025%=      5-min Rain = 0
KTAS 162312Z 11010KT 33/10 A2992 RMK A01 T03250100  RH  025%=      5-min Rain = 0
KTAS 162313Z 12007KT 33/10 A2992 RMK A01 T03260099  RH  025%=      5-min Rain = 0
KTAS 162314Z 12008KT 33/10 A2992 RMK A01 T03280101  RH  025%=      5-min Rain = 0
KTAS 162315Z 12008KT 33/10 A2992 RMK A01 T03280099  RH  024%=      5-min Rain = 0
KTAS 162316Z 12006KT 33/10 A2992 RMK A01 T03260100  RH  025%=      5-min Rain = 0
KTAS 162317Z 11010KT 33/10 A2992 RMK A01 T03280101  RH  025%=      5-min Rain = 0
KTAS 162318Z 10011KT 33/10 A2992 RMK A01 T03270103  RH  025%=      5-min Rain = 0
KTAS 162319Z 12010KT 33/10 A2992 RMK A01 T03280104  RH  025%=      5-min Rain = 0
KTAS 162320Z 11009KT 33/11 A2992 RMK A01 T03280105  RH  026%=      5-min Rain = 0
KTAS 162321Z 12010G15KT 33/11 A2992 RMK A01 T03290106  RH  026%=      5-min Rain = 0
KTAS 162322Z 11010KT 33/11 A2992 RMK A01 T03290106  RH  025%=      5-min Rain = 0
KTAS 162323Z 12011G16KT 33/11 A2992 RMK A01 T03250105  RH  026%=      5-min Rain = 0
KTAS 162324Z 13011KT 32/11 A2992 RMK A01 T03210106  RH  027%=      5-min Rain = 0
KTAS 162325Z 10011KT 32/11 A2992 RMK A01 T03180106  RH  027%=      5-min Rain = 0
KTAS 162326Z 11011KT 32/11 A2992 RMK A01 T03160106  RH  027%=      5-min Rain = 0
KTAS 162327Z 12012KT 31/11 A2992 RMK A01 T03140106  RH  028%=      5-min Rain = 0
KTAS 162328Z 12011KT 31/11 A2992 RMK A01 T03130105  RH  028%=      5-min Rain = 0
KTAS 162329Z 11010KT 31/11 A2992 RMK A01 T03140105  RH  028%=      5-min Rain = 0
KTAS 162330Z 12010KT 32/11 A2992 RMK A01 T03170106  RH  027%=      5-min Rain = 0
KTAS 162331Z 12012KT 32/11 A2992 RMK A01 T03200106  RH  027%=      5-min Rain = 0
KTAS 162332Z 10009KT 32/11 A2992 RMK A01 T03200106  RH  027%=      5-min Rain = 0
KTAS 162333Z 10008KT 32/11 A2992 RMK A01 T03210107  RH  027%=      5-min Rain = 0
KTAS 162334Z 11013KT 32/11 A2992 RMK A01 T03230107  RH  027%=      5-min Rain = 0
KTAS 162335Z 11015KT 32/11 A2992 RMK A01 T03240106  RH  026%=      5-min Rain = 0
KTAS 162336Z 11015KT 32/11 A2992 RMK A01 T03230105  RH  026%=      5-min Rain = 0
KTAS 162337Z 11013KT 32/11 A2992 RMK A01 T03210105  RH  027%=      5-min Rain = 0
KTAS 162338Z 12013KT 32/11 A2992 RMK A01 T03210106  RH  027%=      5-min Rain = 0
KTAS 162339Z 11014KT 32/11 A2992 RMK A01 T03220107  RH  027%=      5-min Rain = 0
KTAS 162340Z 11015KT 32/11 A2992 RMK A01 T03220106  RH  027%=      5-min Rain = 0
KTAS 162341Z 10014KT 32/11 A2992 RMK A01 T03200107  RH  027%=      5-min Rain = 0
KTAS 162342Z 10013G18KT 32/11 A2992 RMK A01 T03180107  RH  027%=      5-min Rain = 0
KTAS 162343Z 10012KT 32/11 A2992 RMK A01 T03170108  RH  028%=      5-min Rain = 0
KTAS 162344Z 11015KT 31/11 A2992 RMK A01 T03140105  RH  028%=      5-min Rain = 0
KTAS 162345Z 12015KT 31/11 A2992 RMK A01 T03110105  RH  028%=      5-min Rain = 0
KTAS 162346Z 12012KT 31/11 A2992 RMK A01 T03090105  RH  028%=      5-min Rain = 0
KTAS 162347Z 12011KT 31/11 A2992 RMK A01 T03080105  RH  029%=      5-min Rain = 0
KTAS 162348Z 10010KT 31/11 A2992 RMK A01 T03080106  RH  029%=      5-min Rain = 0
KTAS 162349Z 12011KT 31/11 A2992 RMK A01 T03080106  RH  029%=      5-min Rain = 0
KTAS 162350Z 11010KT 31/11 A2992 RMK A01 T03080105  RH  029%=      5-min Rain = 0
KTAS 162351Z 11013KT 31/10 A2992 RMK A01 T03070104  RH  029%=      5-min Rain = 0
KTAS 162352Z 13013KT 31/10 A2992 RMK A01 T03060104  RH  029%=      5-min Rain = 0
KTAS 162353Z 11011KT 31/10 A2992 RMK A01 T03060104  RH  029%=      5-min Rain = 0
KTAS 162354Z 11014KT 31/10 A2992 RMK A01 T03050104  RH  029%=      5-min Rain = 0
KTAS 162355Z 12013KT 31/10 A2992 RMK A01 T03050104  RH  029%=      5-min Rain = 0
KTAS 162356Z 11013KT 30/10 A2992 RMK A01 T03040104  RH  029%=      5-min Rain = 0
KTAS 162357Z 11011KT 30/10 A2992 RMK A01 T03040104  RH  029%=      5-min Rain = 0
KTAS 162358Z 11013KT 30/10 A2992 RMK A01 T03040104  RH  029%=      5-min Rain = 0
KTAS 162359Z 12012KT 31/10 A2992 RMK A01 T03050104  RH  029%=      5-min Rain = 0
KTAS 170000Z 12008KT 31/10 A2992 RMK A01 T03080104  RH  028%=      5-min Rain = 0
KTAS 170001Z 12011KT 31/10 A2992 RMK A01 T03120104  RH  028%=      5-min Rain = 0
KTAS 170002Z 11009KT 31/11 A2992 RMK A01 T03140105  RH  028%=      5-min Rain = 0
KTAS 170003Z 10010KT 32/11 A2992 RMK A01 T03160105  RH  027%=      5-min Rain = 0
KTAS 170004Z 11013KT 32/10 A2992 RMK A01 T03160104  RH  027%=      5-min Rain = 0
KTAS 170005Z 10014KT 32/10 A2992 RMK A01 T03150104  RH  027%=      5-min Rain = 0
KTAS 170006Z 10010KT 32/10 A2992 RMK A01 T03150104  RH  027%=      5-min Rain = 0
KTAS 170007Z 10012KT 32/10 A2992 RMK A01 T03150103  RH  027%=      5-min Rain = 0
KTAS 170008Z 11012KT 32/10 A2992 RMK A01 T03150104  RH  027%=      5-min Rain = 0
KTAS 170009Z 12011KT 32/11 A2992 RMK A01 T03150105  RH  027%=      5-min Rain = 0
KTAS 170010Z 12011KT 32/11 A2992 RMK A01 T03150105  RH  027%=      5-min Rain = 0
KTAS 170011Z 10012G17KT 32/11 A2992 RMK A01 T03160105  RH  027%=      5-min Rain = 0
KTAS 170012Z 10012KT 32/10 A2991 RMK A01 T03150104  RH  027%=      5-min Rain = 0
KTAS 170013Z 10010G15KT 32/10 A2991 RMK A01 T03150104  RH  027%=      5-min Rain = 0
KTAS 170014Z 11013KT 31/10 A2991 RMK A01 T03140103  RH  027%=      5-min Rain = 0
KTAS 170015Z 11011KT 31/10 A2991 RMK A01 T03140104  RH  027%=      5-min Rain = 0
KTAS 170016Z 12011KT 31/10 A2991 RMK A01 T03140103  RH  027%=      5-min Rain = 0
KTAS 170017Z 11010KT 31/10 A2991 RMK A01 T03140104  RH  027%=      5-min Rain = 0
KTAS 170018Z 10012KT 31/10 A2991 RMK A01 T03140102  RH  027%=      5-min Rain = 0
KTAS 170019Z 10012KT 31/10 A2991 RMK A01 T03120103  RH  027%=      5-min Rain = 0
KTAS 170020Z 11014KT 31/10 A2991 RMK A01 T03110101  RH  027%=      5-min Rain = 0
KTAS 170021Z 11012KT 31/10 A2991 RMK A01 T03100101  RH  027%=      5-min Rain = 0
KTAS 170022Z 12011KT 31/10 A2991 RMK A01 T03100100  RH  027%=      5-min Rain = 0
KTAS 170023Z 11011KT 31/10 A2991 RMK A01 T03100101  RH  027%=      5-min Rain = 0
KTAS 170024Z 10012KT 31/10 A2991 RMK A01 T03100101  RH  028%=      5-min Rain = 0
KTAS 170025Z 10010KT 31/10 A2991 RMK A01 T03080101  RH  028%=      5-min Rain = 0
KTAS 170026Z 11010KT 31/10 A2991 RMK A01 T03070100  RH  028%=      5-min Rain = 0
KTAS 170027Z 10011KT 31/10 A2991 RMK A01 T03070100  RH  028%=      5-min Rain = 0
KTAS 170028Z 11012KT 31/10 A2991 RMK A01 T03070099  RH  028%=      5-min Rain = 0
KTAS 170029Z 10012G17KT 31/10 A2991 RMK A01 T03060100  RH  028%=      5-min Rain = 0
KTAS 170030Z 11012KT 31/10 A2991 RMK A01 T03070101  RH  028%=      5-min Rain = 0
KTAS 170031Z 09011KT 31/10 A2991 RMK A01 T03060101  RH  028%=      5-min Rain = 0
KTAS 170032Z 09011KT 31/10 A2991 RMK A01 T03050101  RH  028%=      5-min Rain = 0
KTAS 170033Z 10012KT 30/10 A2991 RMK A01 T03040101  RH  028%=      5-min Rain = 0
KTAS 170034Z 10009KT 30/10 A2991 RMK A01 T03040102  RH  029%=      5-min Rain = 0
KTAS 170035Z 10012KT 30/10 A2991 RMK A01 T03040100  RH  028%=      5-min Rain = 0
KTAS 170036Z 09011KT 30/10 A2991 RMK A01 T03040101  RH  028%=      5-min Rain = 0
KTAS 170037Z 10011KT 30/10 A2991 RMK A01 T03040101  RH  028%=      5-min Rain = 0
KTAS 170038Z 10011KT 31/10 A2991 RMK A01 T03050100  RH  028%=      5-min Rain = 0
KTAS 170039Z 11012KT 31/10 A2991 RMK A01 T03050099  RH  028%=      5-min Rain = 0
KTAS 170040Z 12010KT 30/10 A2991 RMK A01 T03040099  RH  028%=      5-min Rain = 0
KTAS 170041Z 11010KT 30/10 A2991 RMK A01 T03030098  RH  028%=      5-min Rain = 0
KTAS 170042Z 11013KT 30/10 A2991 RMK A01 T03020098  RH  028%=      5-min Rain = 0
KTAS 170043Z 11012KT 30/10 A2991 RMK A01 T03010098  RH  028%=      5-min Rain = 0
KTAS 170044Z 11010KT 30/10 A2991 RMK A01 T03000099  RH  029%=      5-min Rain = 0
KTAS 170045Z 11013KT 30/10 A2991 RMK A01 T02990099  RH  029%=      5-min Rain = 0
KTAS 170046Z 11014KT 30/10 A2991 RMK A01 T03000099  RH  029%=      5-min Rain = 0
KTAS 170047Z 11011KT 30/10 A2991 RMK A01 T03010099  RH  029%=      5-min Rain = 0
KTAS 170048Z 10010KT 30/10 A2991 RMK A01 T03010100  RH  029%=      5-min Rain = 0
KTAS 170049Z 10009KT 30/10 A2991 RMK A01 T03000100  RH  029%=      5-min Rain = 0
KTAS 170050Z 10010KT 30/10 A2991 RMK A01 T02990100  RH  029%=      5-min Rain = 0
KTAS 170051Z 10009KT 30/10 A2991 RMK A01 T02980100  RH  029%=      5-min Rain = 0
KTAS 170052Z 10010KT 30/10 A2991 RMK A01 T02980099  RH  029%=      5-min Rain = 0
KTAS 170053Z 11011KT 30/10 A2991 RMK A01 T02970099  RH  029%=      5-min Rain = 0
KTAS 170054Z 11008KT 30/10 A2991 RMK A01 T02970100  RH  029%=      5-min Rain = 0
KTAS 170055Z 11010KT 30/10 A2991 RMK A01 T02970099  RH  029%=      5-min Rain = 0
KTAS 170056Z 11013KT 30/10 A2991 RMK A01 T02970098  RH  029%=      5-min Rain = 0
KTAS 170057Z 11010KT 30/10 A2991 RMK A01 T02970098  RH  029%=      5-min Rain = 0
KTAS 170058Z 11010KT 30/10 A2991 RMK A01 T02970098  RH  029%=      5-min Rain = 0
KTAS 170059Z 11009KT 30/10 A2991 RMK A01 T02970099  RH  029%=      5-min Rain = 0
KTAS 170100Z 11008KT 30/10 A2991 RMK A01 T02960099  RH  029%=      5-min Rain = 0
KTAS 170101Z 11010KT 30/10 A2991 RMK A01 T02960099  RH  029%=      5-min Rain = 0
KTAS 170102Z 11010G15KT 30/10 A2992 RMK A01 T02950099  RH  030%=      5-min Rain = 0
KTAS 170103Z 10016KT 30/10 A2992 RMK A01 T02950101  RH  030%=      5-min Rain = 0
KTAS 170104Z 10016KT 29/10 A2992 RMK A01 T02940102  RH  030%=      5-min Rain = 0
KTAS 170105Z 11015KT 29/10 A2992 RMK A01 T02930102  RH  030%=      5-min Rain = 0
KTAS 170106Z 11015KT 29/10 A2992 RMK A01 T02930103  RH  031%=      5-min Rain = 0
KTAS 170107Z 10014KT 29/10 A2992 RMK A01 T02920102  RH  031%=      5-min Rain = 0
KTAS 170108Z 10015KT 29/10 A2992 RMK A01 T02920101  RH  030%=      5-min Rain = 0
KTAS 170109Z 11012KT 29/10 A2992 RMK A01 T02920100  RH  030%=      5-min Rain = 0
KTAS 170110Z 10013G18KT 29/10 A2992 RMK A01 T02920100  RH  030%=      5-min Rain = 0
KTAS 170111Z 11011G16KT 29/10 A2992 RMK A01 T02910101  RH  031%=      5-min Rain = 0
KTAS 170112Z 10013G19KT 29/10 A2992 RMK A01 T02900101  RH  031%=      5-min Rain = 0
KTAS 170113Z 10015KT 29/10 A2992 RMK A01 T02900103  RH  031%=      5-min Rain = 0
KTAS 170114Z 11015G20KT 29/10 A2992 RMK A01 T02900104  RH  031%=      5-min Rain = 0
KTAS 170115Z 11017KT 29/11 A2992 RMK A01 T02890105  RH  032%=      5-min Rain = 0
KTAS 170116Z 10015G20KT 29/11 A2992 RMK A01 T02890106  RH  032%=      5-min Rain = 0
KTAS 170117Z 10015KT 29/11 A2992 RMK A01 T02880106  RH  032%=      5-min Rain = 0
KTAS 170118Z 11017KT 29/11 A2992 RMK A01 T02870107  RH  033%=      5-min Rain = 0
KTAS 170119Z 11014KT 29/11 A2992 RMK A01 T02870107  RH  033%=      5-min Rain = 0
KTAS 170120Z 11015KT 29/11 A2992 RMK A01 T02860107  RH  033%=      5-min Rain = 0
KTAS 170121Z 11015KT 29/11 A2992 RMK A01 T02860107  RH  033%=      5-min Rain = 0
KTAS 170122Z 10015KT 29/11 A2992 RMK A01 T02850107  RH  033%=      5-min Rain = 0
KTAS 170123Z 10015KT 29/11 A2992 RMK A01 T02850108  RH  033%=      5-min Rain = 0
KTAS 170124Z 10014G19KT 28/11 A2992 RMK A01 T02840108  RH  033%=      5-min Rain = 0
KTAS 170125Z 10014KT 28/11 A2992 RMK A01 T02830108  RH  034%=      5-min Rain = 0
KTAS 170126Z 10013KT 28/11 A2992 RMK A01 T02830108  RH  034%=      5-min Rain = 0
KTAS 170127Z 10016KT 28/11 A2992 RMK A01 T02820109  RH  034%=      5-min Rain = 0
KTAS 170128Z 10014KT 28/11 A2992 RMK A01 T02820109  RH  034%=      5-min Rain = 0
KTAS 170129Z 10013KT 28/11 A2992 RMK A01 T02820109  RH  034%=      5-min Rain = 0
KTAS 170130Z 11015G20KT 28/11 A2992 RMK A01 T02810109  RH  034%=      5-min Rain = 0
KTAS 170131Z 11015KT 28/11 A2992 RMK A01 T02810110  RH  034%=      5-min Rain = 0
KTAS 170132Z 11015KT 28/11 A2992 RMK A01 T02810110  RH  035%=      5-min Rain = 0
KTAS 170133Z 11016KT 28/11 A2993 RMK A01 T02810110  RH  035%=      5-min Rain = 0
KTAS 170134Z 11015KT 28/11 A2993 RMK A01 T02810110  RH  035%=      5-min Rain = 0
KTAS 170135Z 11014G19KT 28/11 A2993 RMK A01 T02800110  RH  035%=      5-min Rain = 0
KTAS 170136Z 11015KT 28/11 A2992 RMK A01 T02800110  RH  035%=      5-min Rain = 0
KTAS 170137Z 12015KT 28/11 A2992 RMK A01 T02800110  RH  035%=      5-min Rain = 0
KTAS 170138Z 11013KT 28/11 A2993 RMK A01 T02790110  RH  035%=      5-min Rain = 0
KTAS 170139Z 11013KT 28/11 A2993 RMK A01 T02790110  RH  035%=      5-min Rain = 0
KTAS 170140Z 11013KT 28/11 A2993 RMK A01 T02780110  RH  035%=      5-min Rain = 0
KTAS 170141Z 11016KT 28/11 A2993 RMK A01 T02770111  RH  035%=      5-min Rain = 0
KTAS 170142Z 11013KT 28/11 A2993 RMK A01 T02770111  RH  035%=      5-min Rain = 0
KTAS 170143Z 11014KT 28/11 A2993 RMK A01 T02760111  RH  036%=      5-min Rain = 0
KTAS 170144Z 11012KT 28/11 A2993 RMK A01 T02760111  RH  036%=      5-min Rain = 0
KTAS 170145Z 11012KT 28/11 A2993 RMK A01 T02750112  RH  036%=      5-min Rain = 0
KTAS 170146Z 11011KT 28/11 A2993 RMK A01 T02750112  RH  036%=      5-min Rain = 0
KTAS 170147Z 11011KT 27/11 A2993 RMK A01 T02740112  RH  036%=      5-min Rain = 0
KTAS 170148Z 11013KT 27/11 A2993 RMK A01 T02740112  RH  036%=      5-min Rain = 0
KTAS 170149Z 11013KT 27/11 A2993 RMK A01 T02740112  RH  036%=      5-min Rain = 0
KTAS 170150Z 11013KT 27/11 A2993 RMK A01 T02740112  RH  036%=      5-min Rain = 0
KTAS 170151Z 11012KT 27/11 A2993 RMK A01 T02730112  RH  037%=      5-min Rain = 0
KTAS 170152Z 11015KT 27/11 A2993 RMK A01 T02720112  RH  037%=      5-min Rain = 0
KTAS 170153Z 11014KT 27/11 A2993 RMK A01 T02730112  RH  037%=      5-min Rain = 0
KTAS 170154Z 11013KT 27/11 A2993 RMK A01 T02720112  RH  037%=      5-min Rain = 0
KTAS 170155Z 11016G21KT 27/11 A2993 RMK A01 T02720112  RH  037%=      5-min Rain = 0
KTAS 170156Z 11016KT 27/11 A2993 RMK A01 T02720112  RH  037%=      5-min Rain = 0
KTAS 170157Z 10015KT 27/11 A2993 RMK A01 T02720112  RH  037%=      5-min Rain = 0
KTAS 170158Z 10015KT 27/11 A2993 RMK A01 T02720112  RH  037%=      5-min Rain = 0
KTAS 170159Z 10012G17KT 27/11 A2993 RMK A01 T02710112  RH  037%=      5-min Rain = 0
KTAS 170200Z 10011KT 27/11 A2993 RMK A01 T02700112  RH  037%=      5-min Rain = 0
KTAS 170201Z 11013KT 27/11 A2993 RMK A01 T02690112  RH  038%=      5-min Rain = 0
KTAS 170202Z 11015KT 27/11 A2993 RMK A01 T02680113  RH  038%=      5-min Rain = 0
KTAS 170203Z 10015KT 27/11 A2993 RMK A01 T02680113  RH  038%=      5-min Rain = 0
KTAS 170204Z 11015KT 27/11 A2993 RMK A01 T02680114  RH  038%=      5-min Rain = 0
KTAS 170205Z 10015KT 27/11 A2993 RMK A01 T02670114  RH  038%=      5-min Rain = 0
KTAS 170206Z 10011KT 27/11 A2993 RMK A01 T02670114  RH  039%=      5-min Rain = 0
KTAS 170207Z 10011KT 27/11 A2993 RMK A01 T02660114  RH  039%=      5-min Rain = 0
KTAS 170208Z 10016KT 27/11 A2993 RMK A01 T02650114  RH  039%=      5-min Rain = 0
KTAS 170209Z 10013KT 27/11 A2993 RMK A01 T02650114  RH  039%=      5-min Rain = 0
KTAS 170210Z 10016G22KT 27/11 A2993 RMK A01 T02650114  RH  039%=      5-min Rain = 0
KTAS 170211Z 10016KT 27/11 A2993 RMK A01 T02650114  RH  039%=      5-min Rain = 0
KTAS 170212Z 10015G20KT 27/11 A2993 RMK A01 T02660114  RH  039%=      5-min Rain = 0
KTAS 170213Z 10014KT 27/11 A2993 RMK A01 T02650114  RH  039%=      5-min Rain = 0
KTAS 170214Z 10014KT 26/11 A2994 RMK A01 T02640114  RH  039%=      5-min Rain = 0
KTAS 170215Z 11012KT 26/12 A2994 RMK A01 T02640115  RH  039%=      5-min Rain = 0
KTAS 170216Z 10013KT 26/12 A2994 RMK A01 T02620115  RH  040%=      5-min Rain = 0
KTAS 170217Z 10012KT 26/12 A2994 RMK A01 T02620115  RH  040%=      5-min Rain = 0
KTAS 170218Z 11012KT 26/12 A2994 RMK A01 T02610115  RH  040%=      5-min Rain = 0
KTAS 170219Z 10012KT 26/12 A2994 RMK A01 T02610115  RH  040%=      5-min Rain = 0
KTAS 170220Z 10013G18KT 26/12 A2994 RMK A01 T02610116  RH  040%=      5-min Rain = 0
KTAS 170221Z 11014KT 26/12 A2994 RMK A01 T02610116  RH  040%=      5-min Rain = 0
KTAS 170222Z 10014KT 26/12 A2994 RMK A01 T02600116  RH  040%=      5-min Rain = 0
KTAS 170223Z 11012KT 26/12 A2994 RMK A01 T02600116  RH  041%=      5-min Rain = 0
KTAS 170224Z 10011G16KT 26/12 A2994 RMK A01 T02590116  RH  041%=      5-min Rain = 0
KTAS 170225Z 10011KT 26/12 A2995 RMK A01 T02590116  RH  041%=      5-min Rain = 0
KTAS 170226Z 10011KT 26/12 A2995 RMK A01 T02580117  RH  041%=      5-min Rain = 0
KTAS 170227Z 10011KT 26/12 A2995 RMK A01 T02570117  RH  042%=      5-min Rain = 0
KTAS 170228Z 10011KT 26/12 A2995 RMK A01 T02560117  RH  042%=      5-min Rain = 0
KTAS 170229Z 10012KT 26/12 A2995 RMK A01 T02560117  RH  042%=      5-min Rain = 0
KTAS 170230Z 10013KT 26/12 A2995 RMK A01 T02560117  RH  042%=      5-min Rain = 0
KTAS 170231Z 10011KT 26/12 A2995 RMK A01 T02560117  RH  042%=      5-min Rain = 0
KTAS 170232Z 10012KT 26/12 A2995 RMK A01 T02550117  RH  042%=      5-min Rain = 0
KTAS 170233Z 10012KT 26/12 A2995 RMK A01 T02550117  RH  042%=      5-min Rain = 0
KTAS 170234Z 10013KT 26/12 A2995 RMK A01 T02550117  RH  042%=      5-min Rain = 0
KTAS 170235Z 10014KT 26/12 A2995 RMK A01 T02550117  RH  042%=      5-min Rain = 0
KTAS 170236Z 10014KT 26/12 A2995 RMK A01 T02550117  RH  042%=      5-min Rain = 0
KTAS 170237Z 10011KT 26/12 A2995 RMK A01 T02550117  RH  042%=      5-min Rain = 0
KTAS 170238Z 10014KT 25/12 A2995 RMK A01 T02540116  RH  042%=      5-min Rain = 0
KTAS 170239Z 10012KT 25/12 A2995 RMK A01 T02540116  RH  042%=      5-min Rain = 0
KTAS 170240Z 11012KT 25/12 A2995 RMK A01 T02540116  RH  042%=      5-min Rain = 0
KTAS 170241Z 10011KT 25/12 A2995 RMK A01 T02530116  RH  042%=      5-min Rain = 0
KTAS 170242Z 10012KT 25/12 A2995 RMK A01 T02530116  RH  042%=      5-min Rain = 0
KTAS 170243Z 11013KT 25/12 A2995 RMK A01 T02530116  RH  042%=      5-min Rain = 0
KTAS 170244Z 10012KT 25/12 A2995 RMK A01 T02530116  RH  042%=      5-min Rain = 0
KTAS 170245Z 10013KT 25/12 A2995 RMK A01 T02530116  RH  042%=      5-min Rain = 0
KTAS 170246Z 10013KT 25/12 A2995 RMK A01 T02530116  RH  042%=      5-min Rain = 0
KTAS 170247Z 11012KT 25/12 A2995 RMK A01 T02530116  RH  042%=      5-min Rain = 0
KTAS 170248Z 10011KT 25/12 A2995 RMK A01 T02520116  RH  043%=      5-min Rain = 0
KTAS 170249Z 11011KT 25/12 A2995 RMK A01 T02520116  RH  043%=      5-min Rain = 0
KTAS 170250Z 10012KT 25/12 A2995 RMK A01 T02510116  RH  043%=      5-min Rain = 0
KTAS 170251Z 10011KT 25/12 A2995 RMK A01 T02510116  RH  043%=      5-min Rain = 0
KTAS 170252Z 10011KT 25/12 A2995 RMK A01 T02510116  RH  043%=      5-min Rain = 0
KTAS 170253Z 10012KT 25/12 A2995 RMK A01 T02500116  RH  043%=      5-min Rain = 0
KTAS 170254Z 11011KT 25/12 A2995 RMK A01 T02500116  RH  043%=      5-min Rain = 0
KTAS 170255Z 11010KT 25/12 A2995 RMK A01 T02500116  RH  043%=      5-min Rain = 0
KTAS 170256Z 10011KT 25/12 A2995 RMK A01 T02490116  RH  043%=      5-min Rain = 0
KTAS 170257Z 10010KT 25/12 A2995 RMK A01 T02490116  RH  043%=      5-min Rain = 0
KTAS 170258Z 10012KT 25/12 A2996 RMK A01 T02490116  RH  043%=      5-min Rain = 0
KTAS 170259Z 10011KT 25/12 A2996 RMK A01 T02490116  RH  043%=      5-min Rain = 0
KTAS 170300Z 11010KT 25/12 A2996 RMK A01 T02490116  RH  043%=      5-min Rain = 0
KTAS 170301Z 10010KT 25/12 A2996 RMK A01 T02490116  RH  043%=      5-min Rain = 0
KTAS 170302Z 10011KT 25/12 A2996 RMK A01 T02490116  RH  044%=      5-min Rain = 0
KTAS 170303Z 10012KT 25/12 A2996 RMK A01 T02480117  RH  044%=      5-min Rain = 0
KTAS 170304Z 11011KT 25/12 A2996 RMK A01 T02480117  RH  044%=      5-min Rain = 0
KTAS 170305Z 11011KT 25/12 A2996 RMK A01 T02480117  RH  044%=      5-min Rain = 0
KTAS 170306Z 11011KT 25/12 A2996 RMK A01 T02470117  RH  044%=      5-min Rain = 0
KTAS 170307Z 10011KT 25/12 A2996 RMK A01 T02470117  RH  044%=      5-min Rain = 0
KTAS 170308Z 11010KT 25/12 A2996 RMK A01 T02470117  RH  044%=      5-min Rain = 0
KTAS 170309Z 11012KT 25/12 A2996 RMK A01 T02470117  RH  044%=      5-min Rain = 0
KTAS 170310Z 11012KT 25/12 A2996 RMK A01 T02470118  RH  044%=      5-min Rain = 0
KTAS 170311Z 11012KT 25/12 A2996 RMK A01 T02470118  RH  044%=      5-min Rain = 0
KTAS 170312Z 11011KT 25/12 A2996 RMK A01 T02470118  RH  044%=      5-min Rain = 0
KTAS 170313Z 11012KT 25/12 A2996 RMK A01 T02470118  RH  044%=      5-min Rain = 0
KTAS 170314Z 11010KT 25/12 A2996 RMK A01 T02470118  RH  044%=      5-min Rain = 0
KTAS 170315Z 11011KT 25/12 A2996 RMK A01 T02470118  RH  045%=      5-min Rain = 0
KTAS 170316Z 11010KT 25/12 A2996 RMK A01 T02460118  RH  045%=      5-min Rain = 0
KTAS 170317Z 11011KT 25/12 A2996 RMK A01 T02450118  RH  045%=      5-min Rain = 0
KTAS 170318Z 11011KT 25/12 A2996 RMK A01 T02460118  RH  045%=      5-min Rain = 0
KTAS 170319Z 11010KT 25/12 A2997 RMK A01 T02460118  RH  045%=      5-min Rain = 0
KTAS 170320Z 11011KT 25/12 A2997 RMK A01 T02450118  RH  045%=      5-min Rain = 0
KTAS 170321Z 11010KT 25/12 A2997 RMK A01 T02450119  RH  045%=      5-min Rain = 0
KTAS 170322Z 11009KT 25/12 A2997 RMK A01 T02450119  RH  045%=      5-min Rain = 0
KTAS 170323Z 11010KT 24/12 A2997 RMK A01 T02440119  RH  045%=      5-min Rain = 0
KTAS 170324Z 11009KT 24/12 A2997 RMK A01 T02430119  RH  046%=      5-min Rain = 0
KTAS 170325Z 11009KT 24/12 A2997 RMK A01 T02430119  RH  046%=      5-min Rain = 0
KTAS 170326Z 11009KT 24/12 A2997 RMK A01 T02420119  RH  046%=      5-min Rain = 0
KTAS 170327Z 11009KT 24/12 A2997 RMK A01 T02420119  RH  046%=      5-min Rain = 0
KTAS 170328Z 11009KT 24/12 A2997 RMK A01 T02410119  RH  046%=      5-min Rain = 0
KTAS 170329Z 11009KT 24/12 A2997 RMK A01 T02420119  RH  046%=      5-min Rain = 0
KTAS 170330Z 11008KT 24/12 A2997 RMK A01 T02420119  RH  046%=      5-min Rain = 0
KTAS 170331Z 11010KT 24/12 A2997 RMK A01 T02410119  RH  046%=      5-min Rain = 0
KTAS 170332Z 11011KT 24/12 A2997 RMK A01 T02410119  RH  046%=      5-min Rain = 0
KTAS 170333Z 11010KT 24/12 A2997 RMK A01 T02430119  RH  046%=      5-min Rain = 0
KTAS 170334Z 11010KT 24/12 A2997 RMK A01 T02420119  RH  046%=      5-min Rain = 0
KTAS 170335Z 10010KT 24/12 A2997 RMK A01 T02420119  RH  046%=      5-min Rain = 0
KTAS 170336Z 11009KT 24/12 A2998 RMK A01 T02420119  RH  046%=      5-min Rain = 0
KTAS 170337Z 11010KT 24/12 A2998 RMK A01 T02410119  RH  046%=      5-min Rain = 0
KTAS 170338Z 11010KT 24/12 A2998 RMK A01 T02410119  RH  046%=      5-min Rain = 0
KTAS 170339Z 11010KT 24/12 A2998 RMK A01 T02410119  RH  046%=      5-min Rain = 0
KTAS 170340Z 11010KT 24/12 A2998 RMK A01 T02410119  RH  046%=      5-min Rain = 0
KTAS 170341Z 11011KT 24/12 A2998 RMK A01 T02410118  RH  046%=      5-min Rain = 0
KTAS 170342Z 11010KT 24/12 A2998 RMK A01 T02410118  RH  046%=      5-min Rain = 0
KTAS 170343Z 11010KT 24/12 A2998 RMK A01 T02410118  RH  046%=      5-min Rain = 0
KTAS 170344Z 11011KT 24/12 A2998 RMK A01 T02410118  RH  046%=      5-min Rain = 0
KTAS 170345Z 11010KT 24/12 A2998 RMK A01 T02420118  RH  046%=      5-min Rain = 0
KTAS 170346Z 11010KT 24/12 A2998 RMK A01 T02420118  RH  046%=      5-min Rain = 0
KTAS 170347Z 11011KT 24/12 A2998 RMK A01 T02420118  RH  046%=      5-min Rain = 0
KTAS 170348Z 11010KT 24/12 A2998 RMK A01 T02420117  RH  046%=      5-min Rain = 0
KTAS 170349Z 11010KT 24/12 A2998 RMK A01 T02420117  RH  046%=      5-min Rain = 0
KTAS 170350Z 11010KT 24/12 A2998 RMK A01 T02420117  RH  046%=      5-min Rain = 0
KTAS 170351Z 11010KT 24/12 A2998 RMK A01 T02410117  RH  046%=      5-min Rain = 0
KTAS 170352Z 11010KT 24/12 A2998 RMK A01 T02410117  RH  046%=      5-min Rain = 0
KTAS 170353Z 11010KT 24/12 A2998 RMK A01 T02410117  RH  046%=      5-min Rain = 0
KTAS 170354Z 11009KT 24/12 A2998 RMK A01 T02400116  RH  046%=      5-min Rain = 0
KTAS 170355Z 12011KT 24/12 A2998 RMK A01 T02400116  RH  046%=      5-min Rain = 0
KTAS 170356Z 11010KT 24/12 A2998 RMK A01 T02400116  RH  046%=      5-min Rain = 0
KTAS 170357Z 12011KT 24/12 A2998 RMK A01 T02400116  RH  046%=      5-min Rain = 0
KTAS 170358Z 11009KT 24/12 A2998 RMK A01 T02400116  RH  046%=      5-min Rain = 0
KTAS 170359Z 12010KT 24/12 A2998 RMK A01 T02390116  RH  046%=      5-min Rain = 0
KTAS 170400Z 12009KT 24/12 A2998 RMK A01 T02390116  RH  046%=      5-min Rain = 0
KTAS 170401Z 12010KT 24/12 A2998 RMK A01 T02390116  RH  046%=      5-min Rain = 0
KTAS 170402Z 12010KT 24/12 A2998 RMK A01 T02390116  RH  046%=      5-min Rain = 0
KTAS 170403Z 12010KT 24/12 A2998 RMK A01 T02380116  RH  046%=      5-min Rain = 0
KTAS 170404Z 12010KT 24/12 A2998 RMK A01 T02380116  RH  046%=      5-min Rain = 0
KTAS 170405Z 12009KT 24/12 A2998 RMK A01 T02380116  RH  046%=      5-min Rain = 0
KTAS 170406Z 12009KT 24/12 A2998 RMK A01 T02370116  RH  046%=      5-min Rain = 0
KTAS 170407Z 11009KT 24/12 A2998 RMK A01 T02370116  RH  047%=      5-min Rain = 0
KTAS 170408Z 11008KT 24/12 A2998 RMK A01 T02360115  RH  047%=      5-min Rain = 0
KTAS 170409Z 12008KT 24/12 A2998 RMK A01 T02360115  RH  047%=      5-min Rain = 0
KTAS 170410Z 11008KT 24/12 A2998 RMK A01 T02350115  RH  047%=      5-min Rain = 0
KTAS 170411Z 11009KT 24/11 A2998 RMK A01 T02350114  RH  047%=      5-min Rain = 0
KTAS 170412Z 12008KT 24/11 A2998 RMK A01 T02350114  RH  047%=      5-min Rain = 0
KTAS 170413Z 12008KT 23/11 A2998 RMK A01 T02340114  RH  047%=      5-min Rain = 0
KTAS 170414Z 11008KT 23/11 A2998 RMK A01 T02340114  RH  047%=      5-min Rain = 0
KTAS 170415Z 11008KT 23/11 A2998 RMK A01 T02340114  RH  047%=      5-min Rain = 0
KTAS 170416Z 11008KT 23/11 A2998 RMK A01 T02330114  RH  047%=      5-min Rain = 0
KTAS 170417Z 12008KT 23/11 A2998 RMK A01 T02330114  RH  047%=      5-min Rain = 0
KTAS 170418Z 12008KT 23/11 A2998 RMK A01 T02320114  RH  047%=      5-min Rain = 0
KTAS 170419Z 12008KT 23/11 A2998 RMK A01 T02320114  RH  047%=      5-min Rain = 0
KTAS 170420Z 12008KT 23/11 A2998 RMK A01 T02310114  RH  048%=      5-min Rain = 0
KTAS 170421Z 12008KT 23/11 A2998 RMK A01 T02310114  RH  048%=      5-min Rain = 0
KTAS 170422Z 12008KT 23/11 A2998 RMK A01 T02310114  RH  048%=      5-min Rain = 0
KTAS 170423Z 12008KT 23/12 A2998 RMK A01 T02300115  RH  048%=      5-min Rain = 0
KTAS 170424Z 12008KT 23/12 A2998 RMK A01 T02300115  RH  048%=      5-min Rain = 0
KTAS 170425Z 12008KT 23/12 A2998 RMK A01 T02290115  RH  049%=      5-min Rain = 0
KTAS 170426Z 12008KT 23/12 A2998 RMK A01 T02290116  RH  049%=      5-min Rain = 0
KTAS 170427Z 12008KT 23/12 A2998 RMK A01 T02290116  RH  049%=      5-min Rain = 0
KTAS 170428Z 12008KT 23/12 A2998 RMK A01 T02290116  RH  049%=      5-min Rain = 0
KTAS 170429Z 12008KT 23/12 A2998 RMK A01 T02280116  RH  049%=      5-min Rain = 0
KTAS 170430Z 12008KT 23/12 A2999 RMK A01 T02280116  RH  049%=      5-min Rain = 0
KTAS 170431Z 12008KT 23/12 A2999 RMK A01 T02280116  RH  049%=      5-min Rain = 0
KTAS 170432Z 12008KT 23/12 A2999 RMK A01 T02270116  RH  049%=      5-min Rain = 0
KTAS 170433Z 12009KT 23/12 A2999 RMK A01 T02280116  RH  049%=      5-min Rain = 0
KTAS 170434Z 12008KT 23/12 A2999 RMK A01 T02280116  RH  049%=      5-min Rain = 0
KTAS 170435Z 12008KT 23/12 A2999 RMK A01 T02280116  RH  049%=      5-min Rain = 0
KTAS 170436Z 12008KT 23/12 A2999 RMK A01 T02280116  RH  049%=      5-min Rain = 0
KTAS 170437Z 12008KT 23/12 A2999 RMK A01 T02280115  RH  049%=      5-min Rain = 0
KTAS 170438Z 12009KT 23/12 A2999 RMK A01 T02280115  RH  049%=      5-min Rain = 0
KTAS 170439Z 12008KT 23/12 A2999 RMK A01 T02290115  RH  049%=      5-min Rain = 0
KTAS 170440Z 12009KT 23/12 A2999 RMK A01 T02280115  RH  049%=      5-min Rain = 0
KTAS 170441Z 12008KT 23/12 A2999 RMK A01 T02280115  RH  049%=      5-min Rain = 0
KTAS 170442Z 12008KT 23/11 A2999 RMK A01 T02280114  RH  049%=      5-min Rain = 0
KTAS 170443Z 12008KT 23/11 A2999 RMK A01 T02270114  RH  049%=      5-min Rain = 0
KTAS 170444Z 12008KT 23/11 A2998 RMK A01 T02270114  RH  049%=      5-min Rain = 0
KTAS 170445Z 12008KT 23/11 A2998 RMK A01 T02270114  RH  049%=      5-min Rain = 0
KTAS 170446Z 12008KT 23/11 A2998 RMK A01 T02270114  RH  049%=      5-min Rain = 0
KTAS 170447Z 12009KT 23/11 A2999 RMK A01 T02280114  RH  049%=      5-min Rain = 0
KTAS 170448Z 12008KT 23/11 A2999 RMK A01 T02280114  RH  048%=      5-min Rain = 0
KTAS 170449Z 12009KT 23/11 A2999 RMK A01 T02290114  RH  048%=      5-min Rain = 0
KTAS 170450Z 12010KT 23/11 A2999 RMK A01 T02290113  RH  048%=      5-min Rain = 0
KTAS 170451Z 12008KT 23/11 A2999 RMK A01 T02290113  RH  048%=      5-min Rain = 0
KTAS 170452Z 13010KT 23/11 A2999 RMK A01 T02280113  RH  048%=      5-min Rain = 0
KTAS 170453Z 13009KT 23/11 A2999 RMK A01 T02280113  RH  048%=      5-min Rain = 0
KTAS 170454Z 13008KT 23/11 A2999 RMK A01 T02280113  RH  048%=      5-min Rain = 0
KTAS 170455Z 12008KT 23/11 A2999 RMK A01 T02280113  RH  048%=      5-min Rain = 0
KTAS 170456Z 13009KT 23/11 A2999 RMK A01 T02270112  RH  048%=      5-min Rain = 0
KTAS 170457Z 13008KT 23/11 A2999 RMK A01 T02270112  RH  048%=      5-min Rain = 0
KTAS 170458Z 13009KT 23/11 A2999 RMK A01 T02270112  RH  048%=      5-min Rain = 0
KTAS 170459Z 13008KT 23/11 A2999 RMK A01 T02260112  RH  048%=      5-min Rain = 0

Page generated in 0.1077 seconds.